<?xml version="1.0" encoding="UTF-8" standalone="no" ?>
<gpx xmlns="http://www.topografix.com/GPX/1/1" xmlns:xsi="http://www.w3.org/2001/XMLSchema-instance" xsi:schemaLocation="http://www.topografix.com/GPX/1/1 http://www.topografix.com/GPX/1/1/gpx.xsd" version="1.1" creator="VisuGPX - https://www.visugpx.com">
  <metadata>
    <name>Punta La Marmora</name>
    <desc><![CDATA[Montée au sommet du point culminant de la Sardaigne, la Punta La Marmora (1834m).]]></desc>
  </metadata>
  <wpt lat="40.00582" lon="9.3146">
    <ele>1653.2</ele>
    <name><![CDATA[Rudieri]]></name>
  </wpt>
  <wpt lat="39.98975" lon="9.32488">
    <ele>1877.3</ele>
    <name><![CDATA[Marmora]]></name>
  </wpt>
  <wpt lat="40.00149" lon="9.31287">
    <ele>1538.5</ele>
    <name><![CDATA[Pista]]></name>
  </wpt>
  <wpt lat="39.99901" lon="9.31155">
    <ele>1512.8</ele>
    <name><![CDATA[Presa Acqua]]></name>
  </wpt>
  <trk>
    <name><![CDATA[Punta Marmora]]></name>
    <trkseg>
      <trkpt lat="40.01943" lon="9.27755">
        <ele>1559.1</ele>
        <time>2012-11-09T08:43:43Z</time>
      </trkpt>
      <trkpt lat="40.01936" lon="9.27749">
        <ele>1560.8</ele>
        <time>2012-11-09T08:50:53Z</time>
      </trkpt>
      <trkpt lat="40.01931" lon="9.2775">
        <ele>1559.7</ele>
        <time>2012-11-09T08:51:13Z</time>
      </trkpt>
      <trkpt lat="40.01892" lon="9.27768">
        <ele>1562.7</ele>
        <time>2012-11-09T08:51:38Z</time>
      </trkpt>
      <trkpt lat="40.0187" lon="9.27785">
        <ele>1566.8</ele>
        <time>2012-11-09T08:52:07Z</time>
      </trkpt>
      <trkpt lat="40.01866" lon="9.27782">
        <ele>1568.6</ele>
        <time>2012-11-09T08:52:13Z</time>
      </trkpt>
      <trkpt lat="40.01863" lon="9.27776">
        <ele>1569.4</ele>
        <time>2012-11-09T08:52:20Z</time>
      </trkpt>
      <trkpt lat="40.01867" lon="9.27764">
        <ele>1570.2</ele>
        <time>2012-11-09T08:52:30Z</time>
      </trkpt>
      <trkpt lat="40.01881" lon="9.27743">
        <ele>1570.3</ele>
        <time>2012-11-09T08:52:42Z</time>
      </trkpt>
      <trkpt lat="40.01946" lon="9.27708">
        <ele>1571.5</ele>
        <time>2012-11-09T08:53:01Z</time>
      </trkpt>
      <trkpt lat="40.01958" lon="9.27697">
        <ele>1572.2</ele>
        <time>2012-11-09T08:53:04Z</time>
      </trkpt>
      <trkpt lat="40.01969" lon="9.27682">
        <ele>1573.6</ele>
        <time>2012-11-09T08:53:08Z</time>
      </trkpt>
      <trkpt lat="40.01973" lon="9.27669">
        <ele>1574.5</ele>
        <time>2012-11-09T08:53:12Z</time>
      </trkpt>
      <trkpt lat="40.01973" lon="9.27655">
        <ele>1575.2</ele>
        <time>2012-11-09T08:53:16Z</time>
      </trkpt>
      <trkpt lat="40.01968" lon="9.27638">
        <ele>1576.4</ele>
        <time>2012-11-09T08:53:24Z</time>
      </trkpt>
      <trkpt lat="40.01964" lon="9.276">
        <ele>1578.8</ele>
        <time>2012-11-09T08:53:39Z</time>
      </trkpt>
      <trkpt lat="40.01961" lon="9.27598">
        <ele>1579.3</ele>
        <time>2012-11-09T08:53:42Z</time>
      </trkpt>
      <trkpt lat="40.0195" lon="9.27619">
        <ele>1583.3</ele>
        <time>2012-11-09T08:53:55Z</time>
      </trkpt>
      <trkpt lat="40.01933" lon="9.27635">
        <ele>1586.3</ele>
        <time>2012-11-09T08:54:07Z</time>
      </trkpt>
      <trkpt lat="40.01901" lon="9.27656">
        <ele>1591</ele>
        <time>2012-11-09T08:54:31Z</time>
      </trkpt>
      <trkpt lat="40.01817" lon="9.277">
        <ele>1598.8</ele>
        <time>2012-11-09T08:55:35Z</time>
      </trkpt>
      <trkpt lat="40.01785" lon="9.27727">
        <ele>1604.1</ele>
        <time>2012-11-09T08:56:02Z</time>
      </trkpt>
      <trkpt lat="40.01764" lon="9.27733">
        <ele>1607.3</ele>
        <time>2012-11-09T08:56:18Z</time>
      </trkpt>
      <trkpt lat="40.01726" lon="9.27733">
        <ele>1613.7</ele>
        <time>2012-11-09T08:56:46Z</time>
      </trkpt>
      <trkpt lat="40.01714" lon="9.27738">
        <ele>1613.8</ele>
        <time>2012-11-09T08:56:54Z</time>
      </trkpt>
      <trkpt lat="40.01694" lon="9.27758">
        <ele>1616.5</ele>
        <time>2012-11-09T08:57:10Z</time>
      </trkpt>
      <trkpt lat="40.01684" lon="9.27775">
        <ele>1619.3</ele>
        <time>2012-11-09T08:57:23Z</time>
      </trkpt>
      <trkpt lat="40.01672" lon="9.27787">
        <ele>1620.6</ele>
        <time>2012-11-09T08:57:33Z</time>
      </trkpt>
      <trkpt lat="40.01652" lon="9.27802">
        <ele>1623.3</ele>
        <time>2012-11-09T08:57:50Z</time>
      </trkpt>
      <trkpt lat="40.01632" lon="9.2781">
        <ele>1628.3</ele>
        <time>2012-11-09T08:58:06Z</time>
      </trkpt>
      <trkpt lat="40.01628" lon="9.27816">
        <ele>1629</ele>
        <time>2012-11-09T08:58:10Z</time>
      </trkpt>
      <trkpt lat="40.01626" lon="9.2783">
        <ele>1629.2</ele>
        <time>2012-11-09T08:58:17Z</time>
      </trkpt>
      <trkpt lat="40.01629" lon="9.27858">
        <ele>1630.5</ele>
        <time>2012-11-09T08:58:32Z</time>
      </trkpt>
      <trkpt lat="40.01629" lon="9.27878">
        <ele>1631.5</ele>
        <time>2012-11-09T08:58:41Z</time>
      </trkpt>
      <trkpt lat="40.0162" lon="9.27906">
        <ele>1633.1</ele>
        <time>2012-11-09T08:58:51Z</time>
      </trkpt>
      <trkpt lat="40.01601" lon="9.27937">
        <ele>1635.8</ele>
        <time>2012-11-09T08:59:04Z</time>
      </trkpt>
      <trkpt lat="40.01571" lon="9.27967">
        <ele>1638.1</ele>
        <time>2012-11-09T08:59:18Z</time>
      </trkpt>
      <trkpt lat="40.01556" lon="9.27988">
        <ele>1638.6</ele>
        <time>2012-11-09T08:59:23Z</time>
      </trkpt>
      <trkpt lat="40.01561" lon="9.28014">
        <ele>1636.4</ele>
        <time>2012-11-09T08:59:29Z</time>
      </trkpt>
      <trkpt lat="40.01561" lon="9.28091">
        <ele>1636.8</ele>
        <time>2012-11-09T08:59:44Z</time>
      </trkpt>
      <trkpt lat="40.01559" lon="9.28121">
        <ele>1637.4</ele>
        <time>2012-11-09T08:59:51Z</time>
      </trkpt>
      <trkpt lat="40.01553" lon="9.28147">
        <ele>1637.4</ele>
        <time>2012-11-09T08:59:58Z</time>
      </trkpt>
      <trkpt lat="40.0154" lon="9.28166">
        <ele>1639.1</ele>
        <time>2012-11-09T09:00:07Z</time>
      </trkpt>
      <trkpt lat="40.01505" lon="9.28187">
        <ele>1640.9</ele>
        <time>2012-11-09T09:00:23Z</time>
      </trkpt>
      <trkpt lat="40.01496" lon="9.28195">
        <ele>1640.7</ele>
        <time>2012-11-09T09:00:26Z</time>
      </trkpt>
      <trkpt lat="40.01495" lon="9.28215">
        <ele>1640.4</ele>
        <time>2012-11-09T09:00:31Z</time>
      </trkpt>
      <trkpt lat="40.01492" lon="9.28225">
        <ele>1640.3</ele>
        <time>2012-11-09T09:00:34Z</time>
      </trkpt>
      <trkpt lat="40.01428" lon="9.28338">
        <ele>1652.7</ele>
        <time>2012-11-09T09:01:34Z</time>
      </trkpt>
      <trkpt lat="40.01364" lon="9.28436">
        <ele>1663.3</ele>
        <time>2012-11-09T09:02:40Z</time>
      </trkpt>
      <trkpt lat="40.01332" lon="9.28512">
        <ele>1665.6</ele>
        <time>2012-11-09T09:03:04Z</time>
      </trkpt>
      <trkpt lat="40.01319" lon="9.28565">
        <ele>1665.3</ele>
        <time>2012-11-09T09:03:18Z</time>
      </trkpt>
      <trkpt lat="40.01282" lon="9.2874">
        <ele>1664.4</ele>
        <time>2012-11-09T09:03:56Z</time>
      </trkpt>
      <trkpt lat="40.01254" lon="9.28799">
        <ele>1666</ele>
        <time>2012-11-09T09:04:09Z</time>
      </trkpt>
      <trkpt lat="40.01251" lon="9.28816">
        <ele>1666.1</ele>
        <time>2012-11-09T09:04:12Z</time>
      </trkpt>
      <trkpt lat="40.01259" lon="9.28866">
        <ele>1664.7</ele>
        <time>2012-11-09T09:04:22Z</time>
      </trkpt>
      <trkpt lat="40.01258" lon="9.28894">
        <ele>1664.7</ele>
        <time>2012-11-09T09:04:30Z</time>
      </trkpt>
      <trkpt lat="40.01261" lon="9.28905">
        <ele>1663</ele>
        <time>2012-11-09T09:05:25Z</time>
      </trkpt>
      <trkpt lat="40.01258" lon="9.28993">
        <ele>1663.3</ele>
        <time>2012-11-09T09:05:50Z</time>
      </trkpt>
      <trkpt lat="40.01263" lon="9.29036">
        <ele>1663.3</ele>
        <time>2012-11-09T09:06:00Z</time>
      </trkpt>
      <trkpt lat="40.01267" lon="9.29056">
        <ele>1663.6</ele>
        <time>2012-11-09T09:06:07Z</time>
      </trkpt>
      <trkpt lat="40.01303" lon="9.29137">
        <ele>1664.2</ele>
        <time>2012-11-09T09:06:29Z</time>
      </trkpt>
      <trkpt lat="40.0131" lon="9.2918">
        <ele>1665.1</ele>
        <time>2012-11-09T09:06:43Z</time>
      </trkpt>
      <trkpt lat="40.01311" lon="9.29218">
        <ele>1667.8</ele>
        <time>2012-11-09T09:06:53Z</time>
      </trkpt>
      <trkpt lat="40.01316" lon="9.29249">
        <ele>1668.1</ele>
        <time>2012-11-09T09:07:04Z</time>
      </trkpt>
      <trkpt lat="40.01315" lon="9.29272">
        <ele>1670.2</ele>
        <time>2012-11-09T09:07:13Z</time>
      </trkpt>
      <trkpt lat="40.0132" lon="9.29309">
        <ele>1670.9</ele>
        <time>2012-11-09T09:07:27Z</time>
      </trkpt>
      <trkpt lat="40.01319" lon="9.29332">
        <ele>1673.5</ele>
        <time>2012-11-09T09:07:36Z</time>
      </trkpt>
      <trkpt lat="40.0133" lon="9.29403">
        <ele>1676.2</ele>
        <time>2012-11-09T09:08:10Z</time>
      </trkpt>
      <trkpt lat="40.01329" lon="9.29429">
        <ele>1681.6</ele>
        <time>2012-11-09T09:08:23Z</time>
      </trkpt>
      <trkpt lat="40.01333" lon="9.2948">
        <ele>1685.5</ele>
        <time>2012-11-09T09:08:52Z</time>
      </trkpt>
      <trkpt lat="40.01334" lon="9.2953">
        <ele>1693.7</ele>
        <time>2012-11-09T09:09:39Z</time>
      </trkpt>
      <trkpt lat="40.01329" lon="9.29564">
        <ele>1698.1</ele>
        <time>2012-11-09T09:10:09Z</time>
      </trkpt>
      <trkpt lat="40.01307" lon="9.29604">
        <ele>1711.2</ele>
        <time>2012-11-09T09:14:35Z</time>
      </trkpt>
      <trkpt lat="40.01301" lon="9.29608">
        <ele>1711.1</ele>
        <time>2012-11-09T09:14:38Z</time>
      </trkpt>
      <trkpt lat="40.01297" lon="9.29616">
        <ele>1710.5</ele>
        <time>2012-11-09T09:14:41Z</time>
      </trkpt>
      <trkpt lat="40.01284" lon="9.29693">
        <ele>1707.6</ele>
        <time>2012-11-09T09:14:53Z</time>
      </trkpt>
      <trkpt lat="40.01256" lon="9.29758">
        <ele>1705.9</ele>
        <time>2012-11-09T09:15:12Z</time>
      </trkpt>
      <trkpt lat="40.01249" lon="9.29802">
        <ele>1707.3</ele>
        <time>2012-11-09T09:15:29Z</time>
      </trkpt>
      <trkpt lat="40.0125" lon="9.29862">
        <ele>1709.9</ele>
        <time>2012-11-09T09:15:58Z</time>
      </trkpt>
      <trkpt lat="40.01253" lon="9.29879">
        <ele>1710.8</ele>
        <time>2012-11-09T09:16:05Z</time>
      </trkpt>
      <trkpt lat="40.01257" lon="9.2989">
        <ele>1713</ele>
        <time>2012-11-09T09:16:11Z</time>
      </trkpt>
      <trkpt lat="40.0129" lon="9.29944">
        <ele>1716.8</ele>
        <time>2012-11-09T09:16:36Z</time>
      </trkpt>
      <trkpt lat="40.01311" lon="9.30001">
        <ele>1722.8</ele>
        <time>2012-11-09T09:17:26Z</time>
      </trkpt>
      <trkpt lat="40.01322" lon="9.3005">
        <ele>1723.1</ele>
        <time>2012-11-09T09:18:04Z</time>
      </trkpt>
      <trkpt lat="40.01325" lon="9.30082">
        <ele>1724.7</ele>
        <time>2012-11-09T09:18:30Z</time>
      </trkpt>
      <trkpt lat="40.01329" lon="9.30084">
        <ele>1725.5</ele>
        <time>2012-11-09T09:18:47Z</time>
      </trkpt>
      <trkpt lat="40.01327" lon="9.30096">
        <ele>1726.5</ele>
        <time>2012-11-09T09:18:58Z</time>
      </trkpt>
      <trkpt lat="40.01322" lon="9.30106">
        <ele>1726.1</ele>
        <time>2012-11-09T09:19:09Z</time>
      </trkpt>
      <trkpt lat="40.01323" lon="9.30128">
        <ele>1727.7</ele>
        <time>2012-11-09T09:19:22Z</time>
      </trkpt>
      <trkpt lat="40.01334" lon="9.30177">
        <ele>1731.6</ele>
        <time>2012-11-09T09:20:01Z</time>
      </trkpt>
      <trkpt lat="40.01345" lon="9.302">
        <ele>1737.4</ele>
        <time>2012-11-09T09:21:35Z</time>
      </trkpt>
      <trkpt lat="40.01339" lon="9.3024">
        <ele>1737.2</ele>
        <time>2012-11-09T09:21:52Z</time>
      </trkpt>
      <trkpt lat="40.01327" lon="9.30257">
        <ele>1737.2</ele>
        <time>2012-11-09T09:22:00Z</time>
      </trkpt>
      <trkpt lat="40.01326" lon="9.30262">
        <ele>1736.1</ele>
        <time>2012-11-09T09:22:06Z</time>
      </trkpt>
      <trkpt lat="40.0132" lon="9.30265">
        <ele>1733.7</ele>
        <time>2012-11-09T09:23:08Z</time>
      </trkpt>
      <trkpt lat="40.01317" lon="9.30271">
        <ele>1734.2</ele>
        <time>2012-11-09T09:23:11Z</time>
      </trkpt>
      <trkpt lat="40.01312" lon="9.30289">
        <ele>1733.8</ele>
        <time>2012-11-09T09:23:25Z</time>
      </trkpt>
      <trkpt lat="40.01315" lon="9.30302">
        <ele>1735.7</ele>
        <time>2012-11-09T09:23:45Z</time>
      </trkpt>
      <trkpt lat="40.01309" lon="9.30319">
        <ele>1735.1</ele>
        <time>2012-11-09T09:23:52Z</time>
      </trkpt>
      <trkpt lat="40.01293" lon="9.30323">
        <ele>1733.4</ele>
        <time>2012-11-09T09:23:59Z</time>
      </trkpt>
      <trkpt lat="40.01266" lon="9.30338">
        <ele>1730.3</ele>
        <time>2012-11-09T09:24:10Z</time>
      </trkpt>
      <trkpt lat="40.01236" lon="9.30337">
        <ele>1727.9</ele>
        <time>2012-11-09T09:24:21Z</time>
      </trkpt>
      <trkpt lat="40.01203" lon="9.3036">
        <ele>1727.3</ele>
        <time>2012-11-09T09:24:32Z</time>
      </trkpt>
      <trkpt lat="40.01197" lon="9.30366">
        <ele>1727.2</ele>
        <time>2012-11-09T09:24:34Z</time>
      </trkpt>
      <trkpt lat="40.01183" lon="9.30393">
        <ele>1727.5</ele>
        <time>2012-11-09T09:24:43Z</time>
      </trkpt>
      <trkpt lat="40.01175" lon="9.30418">
        <ele>1727.9</ele>
        <time>2012-11-09T09:24:50Z</time>
      </trkpt>
      <trkpt lat="40.01167" lon="9.30428">
        <ele>1727.5</ele>
        <time>2012-11-09T09:24:56Z</time>
      </trkpt>
      <trkpt lat="40.01161" lon="9.3044">
        <ele>1728</ele>
        <time>2012-11-09T09:25:01Z</time>
      </trkpt>
      <trkpt lat="40.01156" lon="9.30459">
        <ele>1727.1</ele>
        <time>2012-11-09T09:26:29Z</time>
      </trkpt>
      <trkpt lat="40.01129" lon="9.30526">
        <ele>1723.9</ele>
        <time>2012-11-09T09:26:50Z</time>
      </trkpt>
      <trkpt lat="40.01118" lon="9.30569">
        <ele>1719.2</ele>
        <time>2012-11-09T09:27:00Z</time>
      </trkpt>
      <trkpt lat="40.01107" lon="9.30634">
        <ele>1717.9</ele>
        <time>2012-11-09T09:27:16Z</time>
      </trkpt>
      <trkpt lat="40.01096" lon="9.30679">
        <ele>1716.6</ele>
        <time>2012-11-09T09:27:27Z</time>
      </trkpt>
      <trkpt lat="40.01082" lon="9.30719">
        <ele>1715.4</ele>
        <time>2012-11-09T09:27:34Z</time>
      </trkpt>
      <trkpt lat="40.0108" lon="9.30774">
        <ele>1713.2</ele>
        <time>2012-11-09T09:27:44Z</time>
      </trkpt>
      <trkpt lat="40.01082" lon="9.30829">
        <ele>1711.2</ele>
        <time>2012-11-09T09:27:58Z</time>
      </trkpt>
      <trkpt lat="40.01086" lon="9.30841">
        <ele>1711.7</ele>
        <time>2012-11-09T09:28:15Z</time>
      </trkpt>
      <trkpt lat="40.01086" lon="9.30852">
        <ele>1712.9</ele>
        <time>2012-11-09T09:28:26Z</time>
      </trkpt>
      <trkpt lat="40.0108" lon="9.30866">
        <ele>1713.2</ele>
        <time>2012-11-09T09:28:33Z</time>
      </trkpt>
      <trkpt lat="40.01078" lon="9.3088">
        <ele>1714.1</ele>
        <time>2012-11-09T09:28:43Z</time>
      </trkpt>
      <trkpt lat="40.01053" lon="9.30905">
        <ele>1714.7</ele>
        <time>2012-11-09T09:28:54Z</time>
      </trkpt>
      <trkpt lat="40.01042" lon="9.30927">
        <ele>1714.3</ele>
        <time>2012-11-09T09:28:59Z</time>
      </trkpt>
      <trkpt lat="40.01036" lon="9.30949">
        <ele>1713.6</ele>
        <time>2012-11-09T09:29:04Z</time>
      </trkpt>
      <trkpt lat="40.01017" lon="9.30966">
        <ele>1713.2</ele>
        <time>2012-11-09T09:29:33Z</time>
      </trkpt>
      <trkpt lat="40.01009" lon="9.30965">
        <ele>1712.5</ele>
        <time>2012-11-09T09:29:36Z</time>
      </trkpt>
      <trkpt lat="40.01003" lon="9.30968">
        <ele>1712.2</ele>
        <time>2012-11-09T09:29:38Z</time>
      </trkpt>
      <trkpt lat="40.00992" lon="9.30981">
        <ele>1711.9</ele>
        <time>2012-11-09T09:29:42Z</time>
      </trkpt>
      <trkpt lat="40.00981" lon="9.30986">
        <ele>1711.5</ele>
        <time>2012-11-09T09:29:45Z</time>
      </trkpt>
      <trkpt lat="40.00961" lon="9.31005">
        <ele>1709.9</ele>
        <time>2012-11-09T09:29:53Z</time>
      </trkpt>
      <trkpt lat="40.00928" lon="9.31025">
        <ele>1707.8</ele>
        <time>2012-11-09T09:30:08Z</time>
      </trkpt>
      <trkpt lat="40.00914" lon="9.31046">
        <ele>1706.7</ele>
        <time>2012-11-09T09:30:17Z</time>
      </trkpt>
      <trkpt lat="40.00903" lon="9.31068">
        <ele>1704.5</ele>
        <time>2012-11-09T09:30:26Z</time>
      </trkpt>
      <trkpt lat="40.00893" lon="9.3108">
        <ele>1701.1</ele>
        <time>2012-11-09T09:30:33Z</time>
      </trkpt>
      <trkpt lat="40.00884" lon="9.3111">
        <ele>1696.8</ele>
        <time>2012-11-09T09:30:44Z</time>
      </trkpt>
      <trkpt lat="40.00884" lon="9.31129">
        <ele>1694.5</ele>
        <time>2012-11-09T09:30:51Z</time>
      </trkpt>
      <trkpt lat="40.00874" lon="9.31165">
        <ele>1691.1</ele>
        <time>2012-11-09T09:31:03Z</time>
      </trkpt>
      <trkpt lat="40.00859" lon="9.31184">
        <ele>1686.9</ele>
        <time>2012-11-09T09:31:11Z</time>
      </trkpt>
      <trkpt lat="40.00852" lon="9.31199">
        <ele>1685.4</ele>
        <time>2012-11-09T09:31:16Z</time>
      </trkpt>
      <trkpt lat="40.00835" lon="9.31214">
        <ele>1682.3</ele>
        <time>2012-11-09T09:31:27Z</time>
      </trkpt>
      <trkpt lat="40.00815" lon="9.31244">
        <ele>1675.5</ele>
        <time>2012-11-09T09:31:45Z</time>
      </trkpt>
      <trkpt lat="40.00799" lon="9.31284">
        <ele>1668.2</ele>
        <time>2012-11-09T09:32:00Z</time>
      </trkpt>
      <trkpt lat="40.00781" lon="9.31308">
        <ele>1665.4</ele>
        <time>2012-11-09T09:32:11Z</time>
      </trkpt>
      <trkpt lat="40.00743" lon="9.31341">
        <ele>1661.8</ele>
        <time>2012-11-09T09:32:23Z</time>
      </trkpt>
      <trkpt lat="40.00722" lon="9.31369">
        <ele>1658.1</ele>
        <time>2012-11-09T09:32:35Z</time>
      </trkpt>
      <trkpt lat="40.00706" lon="9.31378">
        <ele>1655.1</ele>
        <time>2012-11-09T09:32:44Z</time>
      </trkpt>
      <trkpt lat="40.00694" lon="9.31397">
        <ele>1653.7</ele>
        <time>2012-11-09T09:32:52Z</time>
      </trkpt>
      <trkpt lat="40.00685" lon="9.3142">
        <ele>1651.1</ele>
        <time>2012-11-09T09:32:59Z</time>
      </trkpt>
      <trkpt lat="40.00679" lon="9.3142">
        <ele>1651.1</ele>
        <time>2012-11-09T09:33:02Z</time>
      </trkpt>
      <trkpt lat="40.00671" lon="9.31412">
        <ele>1650</ele>
        <time>2012-11-09T09:33:08Z</time>
      </trkpt>
      <trkpt lat="40.00661" lon="9.31418">
        <ele>1648.9</ele>
        <time>2012-11-09T09:33:15Z</time>
      </trkpt>
      <trkpt lat="40.00646" lon="9.31438">
        <ele>1650.8</ele>
        <time>2012-11-09T09:33:35Z</time>
      </trkpt>
      <trkpt lat="40.00641" lon="9.31461">
        <ele>1653.4</ele>
        <time>2012-11-09T09:34:29Z</time>
      </trkpt>
      <trkpt lat="40.00605" lon="9.31467">
        <ele>1654.7</ele>
        <time>2012-11-09T09:34:51Z</time>
      </trkpt>
      <trkpt lat="40.00587" lon="9.31463">
        <ele>1652.9</ele>
        <time>2012-11-09T09:34:58Z</time>
      </trkpt>
      <trkpt lat="40.00574" lon="9.31452">
        <ele>1651.7</ele>
        <time>2012-11-09T09:36:17Z</time>
      </trkpt>
      <trkpt lat="40.00559" lon="9.31452">
        <ele>1650.3</ele>
        <time>2012-11-09T09:36:23Z</time>
      </trkpt>
      <trkpt lat="40.00518" lon="9.31461">
        <ele>1651.5</ele>
        <time>2012-11-09T09:36:35Z</time>
      </trkpt>
      <trkpt lat="40.00463" lon="9.31494">
        <ele>1667</ele>
        <time>2012-11-09T09:37:40Z</time>
      </trkpt>
      <trkpt lat="40.00451" lon="9.31509">
        <ele>1667.7</ele>
        <time>2012-11-09T09:37:51Z</time>
      </trkpt>
      <trkpt lat="40.0044" lon="9.31532">
        <ele>1667.8</ele>
        <time>2012-11-09T09:38:03Z</time>
      </trkpt>
      <trkpt lat="40.00425" lon="9.31566">
        <ele>1668.9</ele>
        <time>2012-11-09T09:38:18Z</time>
      </trkpt>
      <trkpt lat="40.00414" lon="9.31583">
        <ele>1669.1</ele>
        <time>2012-11-09T09:38:26Z</time>
      </trkpt>
      <trkpt lat="40.00399" lon="9.3162">
        <ele>1670.6</ele>
        <time>2012-11-09T09:38:39Z</time>
      </trkpt>
      <trkpt lat="40.00382" lon="9.3164">
        <ele>1671.2</ele>
        <time>2012-11-09T09:38:49Z</time>
      </trkpt>
      <trkpt lat="40.00358" lon="9.31682">
        <ele>1676.9</ele>
        <time>2012-11-09T09:39:11Z</time>
      </trkpt>
      <trkpt lat="40.0034" lon="9.31705">
        <ele>1677</ele>
        <time>2012-11-09T09:39:18Z</time>
      </trkpt>
      <trkpt lat="40.00311" lon="9.31754">
        <ele>1677.7</ele>
        <time>2012-11-09T09:39:35Z</time>
      </trkpt>
      <trkpt lat="40.00276" lon="9.31802">
        <ele>1680.1</ele>
        <time>2012-11-09T09:39:59Z</time>
      </trkpt>
      <trkpt lat="40.00249" lon="9.31823">
        <ele>1684.5</ele>
        <time>2012-11-09T09:40:23Z</time>
      </trkpt>
      <trkpt lat="40.00216" lon="9.31863">
        <ele>1692.7</ele>
        <time>2012-11-09T09:41:09Z</time>
      </trkpt>
      <trkpt lat="40.00191" lon="9.31906">
        <ele>1698.1</ele>
        <time>2012-11-09T09:41:37Z</time>
      </trkpt>
      <trkpt lat="40.00178" lon="9.31922">
        <ele>1699.1</ele>
        <time>2012-11-09T09:41:48Z</time>
      </trkpt>
      <trkpt lat="40.00177" lon="9.31938">
        <ele>1698.3</ele>
        <time>2012-11-09T09:41:59Z</time>
      </trkpt>
      <trkpt lat="40.00173" lon="9.3194">
        <ele>1698.8</ele>
        <time>2012-11-09T09:43:05Z</time>
      </trkpt>
      <trkpt lat="40.00172" lon="9.31948">
        <ele>1698.5</ele>
        <time>2012-11-09T09:43:09Z</time>
      </trkpt>
      <trkpt lat="40.00165" lon="9.3195">
        <ele>1698.3</ele>
        <time>2012-11-09T09:43:13Z</time>
      </trkpt>
      <trkpt lat="40.00148" lon="9.31945">
        <ele>1698.6</ele>
        <time>2012-11-09T09:43:23Z</time>
      </trkpt>
      <trkpt lat="40.00117" lon="9.31962">
        <ele>1703.7</ele>
        <time>2012-11-09T09:43:51Z</time>
      </trkpt>
      <trkpt lat="40.00107" lon="9.31963">
        <ele>1707.3</ele>
        <time>2012-11-09T09:44:03Z</time>
      </trkpt>
      <trkpt lat="40.00101" lon="9.31971">
        <ele>1708.2</ele>
        <time>2012-11-09T09:44:13Z</time>
      </trkpt>
      <trkpt lat="40.00087" lon="9.3198">
        <ele>1712.1</ele>
        <time>2012-11-09T09:44:30Z</time>
      </trkpt>
      <trkpt lat="40.00057" lon="9.31985">
        <ele>1718.7</ele>
        <time>2012-11-09T09:45:09Z</time>
      </trkpt>
      <trkpt lat="40.0005" lon="9.31993">
        <ele>1720</ele>
        <time>2012-11-09T09:45:21Z</time>
      </trkpt>
      <trkpt lat="40.00046" lon="9.32003">
        <ele>1719.3</ele>
        <time>2012-11-09T09:45:28Z</time>
      </trkpt>
      <trkpt lat="39.99979" lon="9.32052">
        <ele>1728.1</ele>
        <time>2012-11-09T09:46:43Z</time>
      </trkpt>
      <trkpt lat="39.99979" lon="9.32058">
        <ele>1728.3</ele>
        <time>2012-11-09T09:46:50Z</time>
      </trkpt>
      <trkpt lat="39.99983" lon="9.32058">
        <ele>1727.9</ele>
        <time>2012-11-09T09:47:02Z</time>
      </trkpt>
      <trkpt lat="39.99983" lon="9.32052">
        <ele>1728.2</ele>
        <time>2012-11-09T09:49:32Z</time>
      </trkpt>
      <trkpt lat="39.99978" lon="9.32062">
        <ele>1728.5</ele>
        <time>2012-11-09T09:50:23Z</time>
      </trkpt>
      <trkpt lat="39.99968" lon="9.32064">
        <ele>1729.3</ele>
        <time>2012-11-09T09:50:37Z</time>
      </trkpt>
      <trkpt lat="39.99956" lon="9.32075">
        <ele>1730.7</ele>
        <time>2012-11-09T09:50:59Z</time>
      </trkpt>
      <trkpt lat="39.99943" lon="9.32067">
        <ele>1733.1</ele>
        <time>2012-11-09T09:51:22Z</time>
      </trkpt>
      <trkpt lat="39.99938" lon="9.32068">
        <ele>1734.1</ele>
        <time>2012-11-09T09:51:33Z</time>
      </trkpt>
      <trkpt lat="39.99929" lon="9.32072">
        <ele>1735.9</ele>
        <time>2012-11-09T09:51:48Z</time>
      </trkpt>
      <trkpt lat="39.99918" lon="9.32084">
        <ele>1737.6</ele>
        <time>2012-11-09T09:52:04Z</time>
      </trkpt>
      <trkpt lat="39.99894" lon="9.32127">
        <ele>1743.3</ele>
        <time>2012-11-09T09:52:43Z</time>
      </trkpt>
      <trkpt lat="39.99893" lon="9.32138">
        <ele>1744.2</ele>
        <time>2012-11-09T09:52:54Z</time>
      </trkpt>
      <trkpt lat="39.9988" lon="9.32177">
        <ele>1745.2</ele>
        <time>2012-11-09T09:53:16Z</time>
      </trkpt>
      <trkpt lat="39.9987" lon="9.32195">
        <ele>1746.4</ele>
        <time>2012-11-09T09:53:30Z</time>
      </trkpt>
      <trkpt lat="39.99864" lon="9.32215">
        <ele>1751.7</ele>
        <time>2012-11-09T09:53:49Z</time>
      </trkpt>
      <trkpt lat="39.99825" lon="9.32254">
        <ele>1755.3</ele>
        <time>2012-11-09T09:54:49Z</time>
      </trkpt>
      <trkpt lat="39.9982" lon="9.32271">
        <ele>1755.2</ele>
        <time>2012-11-09T09:55:02Z</time>
      </trkpt>
      <trkpt lat="39.99808" lon="9.32295">
        <ele>1761.2</ele>
        <time>2012-11-09T09:55:15Z</time>
      </trkpt>
      <trkpt lat="39.99776" lon="9.32327">
        <ele>1768.2</ele>
        <time>2012-11-09T09:55:45Z</time>
      </trkpt>
      <trkpt lat="39.99735" lon="9.32339">
        <ele>1771.3</ele>
        <time>2012-11-09T09:56:29Z</time>
      </trkpt>
      <trkpt lat="39.99719" lon="9.32338">
        <ele>1774.3</ele>
        <time>2012-11-09T09:57:12Z</time>
      </trkpt>
      <trkpt lat="39.99709" lon="9.32343">
        <ele>1775</ele>
        <time>2012-11-09T09:57:32Z</time>
      </trkpt>
      <trkpt lat="39.99694" lon="9.32343">
        <ele>1775.4</ele>
        <time>2012-11-09T09:57:50Z</time>
      </trkpt>
      <trkpt lat="39.99681" lon="9.32351">
        <ele>1777.2</ele>
        <time>2012-11-09T09:58:06Z</time>
      </trkpt>
      <trkpt lat="39.99652" lon="9.32348">
        <ele>1782.8</ele>
        <time>2012-11-09T09:58:42Z</time>
      </trkpt>
      <trkpt lat="39.99615" lon="9.3235">
        <ele>1786</ele>
        <time>2012-11-09T10:01:16Z</time>
      </trkpt>
      <trkpt lat="39.99586" lon="9.3237">
        <ele>1794</ele>
        <time>2012-11-09T10:02:11Z</time>
      </trkpt>
      <trkpt lat="39.99576" lon="9.32368">
        <ele>1799.6</ele>
        <time>2012-11-09T10:02:47Z</time>
      </trkpt>
      <trkpt lat="39.99574" lon="9.32363">
        <ele>1802.6</ele>
        <time>2012-11-09T10:02:57Z</time>
      </trkpt>
      <trkpt lat="39.99569" lon="9.32366">
        <ele>1803.8</ele>
        <time>2012-11-09T10:03:06Z</time>
      </trkpt>
      <trkpt lat="39.99567" lon="9.3236">
        <ele>1804.8</ele>
        <time>2012-11-09T10:03:33Z</time>
      </trkpt>
      <trkpt lat="39.99568" lon="9.32342">
        <ele>1807.6</ele>
        <time>2012-11-09T10:04:01Z</time>
      </trkpt>
      <trkpt lat="39.99564" lon="9.32339">
        <ele>1808.8</ele>
        <time>2012-11-09T10:04:10Z</time>
      </trkpt>
      <trkpt lat="39.99541" lon="9.32332">
        <ele>1819.9</ele>
        <time>2012-11-09T10:04:56Z</time>
      </trkpt>
      <trkpt lat="39.99522" lon="9.32335">
        <ele>1829</ele>
        <time>2012-11-09T10:05:33Z</time>
      </trkpt>
      <trkpt lat="39.99508" lon="9.32345">
        <ele>1832</ele>
        <time>2012-11-09T10:05:52Z</time>
      </trkpt>
      <trkpt lat="39.99471" lon="9.32364">
        <ele>1837.2</ele>
        <time>2012-11-09T10:06:17Z</time>
      </trkpt>
      <trkpt lat="39.99461" lon="9.32378">
        <ele>1838.2</ele>
        <time>2012-11-09T10:06:26Z</time>
      </trkpt>
      <trkpt lat="39.99424" lon="9.32414">
        <ele>1843.1</ele>
        <time>2012-11-09T10:06:55Z</time>
      </trkpt>
      <trkpt lat="39.99407" lon="9.32438">
        <ele>1846.2</ele>
        <time>2012-11-09T10:07:26Z</time>
      </trkpt>
      <trkpt lat="39.99393" lon="9.32448">
        <ele>1846.8</ele>
        <time>2012-11-09T10:07:36Z</time>
      </trkpt>
      <trkpt lat="39.99344" lon="9.32476">
        <ele>1851.2</ele>
        <time>2012-11-09T10:08:10Z</time>
      </trkpt>
      <trkpt lat="39.99305" lon="9.3249">
        <ele>1856.1</ele>
        <time>2012-11-09T10:08:39Z</time>
      </trkpt>
      <trkpt lat="39.99273" lon="9.32497">
        <ele>1857.5</ele>
        <time>2012-11-09T10:09:07Z</time>
      </trkpt>
      <trkpt lat="39.99249" lon="9.32506">
        <ele>1859</ele>
        <time>2012-11-09T10:09:26Z</time>
      </trkpt>
      <trkpt lat="39.99218" lon="9.32527">
        <ele>1859.2</ele>
        <time>2012-11-09T10:09:46Z</time>
      </trkpt>
      <trkpt lat="39.99198" lon="9.32534">
        <ele>1861.3</ele>
        <time>2012-11-09T10:09:59Z</time>
      </trkpt>
      <trkpt lat="39.99166" lon="9.32539">
        <ele>1866.1</ele>
        <time>2012-11-09T10:10:33Z</time>
      </trkpt>
      <trkpt lat="39.99144" lon="9.32537">
        <ele>1869.5</ele>
        <time>2012-11-09T10:11:04Z</time>
      </trkpt>
      <trkpt lat="39.99126" lon="9.3253">
        <ele>1871</ele>
        <time>2012-11-09T10:11:18Z</time>
      </trkpt>
      <trkpt lat="39.99118" lon="9.32522">
        <ele>1872.6</ele>
        <time>2012-11-09T10:11:37Z</time>
      </trkpt>
      <trkpt lat="39.99109" lon="9.32522">
        <ele>1874.5</ele>
        <time>2012-11-09T10:11:48Z</time>
      </trkpt>
      <trkpt lat="39.99095" lon="9.32516">
        <ele>1873.8</ele>
        <time>2012-11-09T10:11:55Z</time>
      </trkpt>
      <trkpt lat="39.99073" lon="9.32514">
        <ele>1874.7</ele>
        <time>2012-11-09T10:12:05Z</time>
      </trkpt>
      <trkpt lat="39.99022" lon="9.32494">
        <ele>1874.6</ele>
        <time>2012-11-09T10:12:25Z</time>
      </trkpt>
      <trkpt lat="39.98989" lon="9.32493">
        <ele>1875.3</ele>
        <time>2012-11-09T10:12:37Z</time>
      </trkpt>
      <trkpt lat="39.98976" lon="9.32484">
        <ele>1876.8</ele>
        <time>2012-11-09T10:13:06Z</time>
      </trkpt>
      <trkpt lat="39.98974" lon="9.32488">
        <ele>1878.6</ele>
        <time>2012-11-09T10:13:14Z</time>
      </trkpt>
      <trkpt lat="39.98977" lon="9.32493">
        <ele>1876.9</ele>
        <time>2012-11-09T10:28:29Z</time>
      </trkpt>
      <trkpt lat="39.9899" lon="9.32498">
        <ele>1874.5</ele>
        <time>2012-11-09T10:29:22Z</time>
      </trkpt>
      <trkpt lat="39.99005" lon="9.32497">
        <ele>1875</ele>
        <time>2012-11-09T10:32:58Z</time>
      </trkpt>
      <trkpt lat="39.99011" lon="9.32494">
        <ele>1874.7</ele>
        <time>2012-11-09T10:32:59Z</time>
      </trkpt>
      <trkpt lat="39.99021" lon="9.32495">
        <ele>1873.4</ele>
        <time>2012-11-09T10:33:02Z</time>
      </trkpt>
      <trkpt lat="39.99072" lon="9.32514">
        <ele>1870.4</ele>
        <time>2012-11-09T10:33:19Z</time>
      </trkpt>
      <trkpt lat="39.99099" lon="9.32517">
        <ele>1870.4</ele>
        <time>2012-11-09T10:33:29Z</time>
      </trkpt>
      <trkpt lat="39.99127" lon="9.32536">
        <ele>1871.4</ele>
        <time>2012-11-09T10:33:44Z</time>
      </trkpt>
      <trkpt lat="39.99147" lon="9.32534">
        <ele>1870.3</ele>
        <time>2012-11-09T10:33:49Z</time>
      </trkpt>
      <trkpt lat="39.99167" lon="9.32536">
        <ele>1869.4</ele>
        <time>2012-11-09T10:33:53Z</time>
      </trkpt>
      <trkpt lat="39.99198" lon="9.32532">
        <ele>1867.3</ele>
        <time>2012-11-09T10:33:59Z</time>
      </trkpt>
      <trkpt lat="39.9922" lon="9.32523">
        <ele>1867.3</ele>
        <time>2012-11-09T10:34:02Z</time>
      </trkpt>
      <trkpt lat="39.9925" lon="9.32504">
        <ele>1865.6</ele>
        <time>2012-11-09T10:34:07Z</time>
      </trkpt>
      <trkpt lat="39.99277" lon="9.32495">
        <ele>1861.6</ele>
        <time>2012-11-09T10:34:16Z</time>
      </trkpt>
      <trkpt lat="39.99295" lon="9.32493">
        <ele>1857.5</ele>
        <time>2012-11-09T10:34:28Z</time>
      </trkpt>
      <trkpt lat="39.99339" lon="9.32476">
        <ele>1855.7</ele>
        <time>2012-11-09T10:34:41Z</time>
      </trkpt>
      <trkpt lat="39.99389" lon="9.32447">
        <ele>1851.6</ele>
        <time>2012-11-09T10:34:54Z</time>
      </trkpt>
      <trkpt lat="39.99461" lon="9.32376">
        <ele>1849.1</ele>
        <time>2012-11-09T10:35:14Z</time>
      </trkpt>
      <trkpt lat="39.99471" lon="9.32361">
        <ele>1847.1</ele>
        <time>2012-11-09T10:35:18Z</time>
      </trkpt>
      <trkpt lat="39.99513" lon="9.32338">
        <ele>1840.8</ele>
        <time>2012-11-09T10:35:26Z</time>
      </trkpt>
      <trkpt lat="39.99557" lon="9.32337">
        <ele>1838.2</ele>
        <time>2012-11-09T10:35:42Z</time>
      </trkpt>
      <trkpt lat="39.99565" lon="9.32349">
        <ele>1834.7</ele>
        <time>2012-11-09T10:35:49Z</time>
      </trkpt>
      <trkpt lat="39.9957" lon="9.32366">
        <ele>1830.3</ele>
        <time>2012-11-09T10:35:57Z</time>
      </trkpt>
      <trkpt lat="39.99575" lon="9.32366">
        <ele>1828.7</ele>
        <time>2012-11-09T10:36:01Z</time>
      </trkpt>
      <trkpt lat="39.99579" lon="9.32373">
        <ele>1825.6</ele>
        <time>2012-11-09T10:36:05Z</time>
      </trkpt>
      <trkpt lat="39.99588" lon="9.32375">
        <ele>1817.4</ele>
        <time>2012-11-09T10:36:28Z</time>
      </trkpt>
      <trkpt lat="39.99649" lon="9.32352">
        <ele>1783.5</ele>
        <time>2012-11-09T10:36:49Z</time>
      </trkpt>
      <trkpt lat="39.9968" lon="9.32353">
        <ele>1773.5</ele>
        <time>2012-11-09T10:37:01Z</time>
      </trkpt>
      <trkpt lat="39.99691" lon="9.32347">
        <ele>1771.6</ele>
        <time>2012-11-09T10:37:06Z</time>
      </trkpt>
      <trkpt lat="39.99727" lon="9.32343">
        <ele>1771.3</ele>
        <time>2012-11-09T10:37:23Z</time>
      </trkpt>
      <trkpt lat="39.99768" lon="9.32329">
        <ele>1770.5</ele>
        <time>2012-11-09T10:37:35Z</time>
      </trkpt>
      <trkpt lat="39.99788" lon="9.32312">
        <ele>1770.9</ele>
        <time>2012-11-09T10:37:41Z</time>
      </trkpt>
      <trkpt lat="39.99825" lon="9.32256">
        <ele>1765.9</ele>
        <time>2012-11-09T10:37:56Z</time>
      </trkpt>
      <trkpt lat="39.99864" lon="9.32212">
        <ele>1763.4</ele>
        <time>2012-11-09T10:38:14Z</time>
      </trkpt>
      <trkpt lat="39.99879" lon="9.32179">
        <ele>1760.4</ele>
        <time>2012-11-09T10:38:23Z</time>
      </trkpt>
      <trkpt lat="39.99898" lon="9.32115">
        <ele>1759.5</ele>
        <time>2012-11-09T10:38:37Z</time>
      </trkpt>
      <trkpt lat="39.99911" lon="9.32093">
        <ele>1757.5</ele>
        <time>2012-11-09T10:38:43Z</time>
      </trkpt>
      <trkpt lat="39.99934" lon="9.32073">
        <ele>1753.6</ele>
        <time>2012-11-09T10:38:51Z</time>
      </trkpt>
      <trkpt lat="39.99946" lon="9.32069">
        <ele>1752.5</ele>
        <time>2012-11-09T10:38:57Z</time>
      </trkpt>
      <trkpt lat="39.99962" lon="9.32073">
        <ele>1748.2</ele>
        <time>2012-11-09T10:39:07Z</time>
      </trkpt>
      <trkpt lat="39.99976" lon="9.32067">
        <ele>1743.5</ele>
        <time>2012-11-09T10:39:16Z</time>
      </trkpt>
      <trkpt lat="40.0003" lon="9.32016">
        <ele>1735.7</ele>
        <time>2012-11-09T10:39:39Z</time>
      </trkpt>
      <trkpt lat="40.00057" lon="9.31983">
        <ele>1730.1</ele>
        <time>2012-11-09T10:39:54Z</time>
      </trkpt>
      <trkpt lat="40.00092" lon="9.31977">
        <ele>1726.9</ele>
        <time>2012-11-09T10:40:03Z</time>
      </trkpt>
      <trkpt lat="40.00111" lon="9.31964">
        <ele>1726.2</ele>
        <time>2012-11-09T10:40:08Z</time>
      </trkpt>
      <trkpt lat="40.00159" lon="9.3194">
        <ele>1723.2</ele>
        <time>2012-11-09T10:40:17Z</time>
      </trkpt>
      <trkpt lat="40.00178" lon="9.31925">
        <ele>1721.3</ele>
        <time>2012-11-09T10:40:20Z</time>
      </trkpt>
      <trkpt lat="40.00207" lon="9.31882">
        <ele>1718</ele>
        <time>2012-11-09T10:40:28Z</time>
      </trkpt>
      <trkpt lat="40.00219" lon="9.31859">
        <ele>1714.6</ele>
        <time>2012-11-09T10:40:33Z</time>
      </trkpt>
      <trkpt lat="40.00251" lon="9.31816">
        <ele>1708.8</ele>
        <time>2012-11-09T10:40:42Z</time>
      </trkpt>
      <trkpt lat="40.0029" lon="9.31781">
        <ele>1699.8</ele>
        <time>2012-11-09T10:40:52Z</time>
      </trkpt>
      <trkpt lat="40.00312" lon="9.31756">
        <ele>1697.1</ele>
        <time>2012-11-09T10:40:57Z</time>
      </trkpt>
      <trkpt lat="40.0037" lon="9.31656">
        <ele>1686.5</ele>
        <time>2012-11-09T10:41:20Z</time>
      </trkpt>
      <trkpt lat="40.00396" lon="9.3162">
        <ele>1685.1</ele>
        <time>2012-11-09T10:41:26Z</time>
      </trkpt>
      <trkpt lat="40.00432" lon="9.31545">
        <ele>1681.4</ele>
        <time>2012-11-09T10:41:39Z</time>
      </trkpt>
      <trkpt lat="40.00442" lon="9.31529">
        <ele>1679.8</ele>
        <time>2012-11-09T10:41:43Z</time>
      </trkpt>
      <trkpt lat="40.0045" lon="9.31509">
        <ele>1678.8</ele>
        <time>2012-11-09T10:41:47Z</time>
      </trkpt>
      <trkpt lat="40.00458" lon="9.31496">
        <ele>1677.4</ele>
        <time>2012-11-09T10:41:50Z</time>
      </trkpt>
      <trkpt lat="40.00521" lon="9.31462">
        <ele>1673.8</ele>
        <time>2012-11-09T10:42:03Z</time>
      </trkpt>
      <trkpt lat="40.00556" lon="9.31454">
        <ele>1671.9</ele>
        <time>2012-11-09T10:42:10Z</time>
      </trkpt>
      <trkpt lat="40.00576" lon="9.31459">
        <ele>1670.9</ele>
        <time>2012-11-09T10:42:38Z</time>
      </trkpt>
      <trkpt lat="40.0058" lon="9.31454">
        <ele>1660.7</ele>
        <time>2012-11-09T10:48:29Z</time>
      </trkpt>
      <trkpt lat="40.00579" lon="9.31441">
        <ele>1659.2</ele>
        <time>2012-11-09T10:48:37Z</time>
      </trkpt>
      <trkpt lat="40.00567" lon="9.31439">
        <ele>1659.4</ele>
        <time>2012-11-09T10:49:29Z</time>
      </trkpt>
      <trkpt lat="40.00577" lon="9.31415">
        <ele>1652.2</ele>
        <time>2012-11-09T10:49:49Z</time>
      </trkpt>
      <trkpt lat="40.00585" lon="9.31411">
        <ele>1648.9</ele>
        <time>2012-11-09T10:49:54Z</time>
      </trkpt>
      <trkpt lat="40.00592" lon="9.31403">
        <ele>1645</ele>
        <time>2012-11-09T10:50:02Z</time>
      </trkpt>
      <trkpt lat="40.00584" lon="9.31368">
        <ele>1640.3</ele>
        <time>2012-11-09T10:50:32Z</time>
      </trkpt>
      <trkpt lat="40.00551" lon="9.31307">
        <ele>1634.6</ele>
        <time>2012-11-09T10:51:08Z</time>
      </trkpt>
      <trkpt lat="40.00538" lon="9.31214">
        <ele>1621.5</ele>
        <time>2012-11-09T10:51:35Z</time>
      </trkpt>
      <trkpt lat="40.0053" lon="9.312">
        <ele>1618.1</ele>
        <time>2012-11-09T10:51:41Z</time>
      </trkpt>
      <trkpt lat="40.00529" lon="9.3119">
        <ele>1616.2</ele>
        <time>2012-11-09T10:51:45Z</time>
      </trkpt>
      <trkpt lat="40.00521" lon="9.31184">
        <ele>1612.3</ele>
        <time>2012-11-09T10:52:09Z</time>
      </trkpt>
      <trkpt lat="40.00512" lon="9.31185">
        <ele>1611.8</ele>
        <time>2012-11-09T10:52:12Z</time>
      </trkpt>
      <trkpt lat="40.00488" lon="9.31193">
        <ele>1610.8</ele>
        <time>2012-11-09T10:52:18Z</time>
      </trkpt>
      <trkpt lat="40.00462" lon="9.31194">
        <ele>1610.9</ele>
        <time>2012-11-09T10:52:30Z</time>
      </trkpt>
      <trkpt lat="40.00399" lon="9.31244">
        <ele>1577.3</ele>
        <time>2012-11-09T10:52:49Z</time>
      </trkpt>
      <trkpt lat="40.00379" lon="9.31256">
        <ele>1579.1</ele>
        <time>2012-11-09T10:52:54Z</time>
      </trkpt>
      <trkpt lat="40.00357" lon="9.3126">
        <ele>1575.4</ele>
        <time>2012-11-09T10:52:59Z</time>
      </trkpt>
      <trkpt lat="40.00349" lon="9.31264">
        <ele>1572.1</ele>
        <time>2012-11-09T10:53:02Z</time>
      </trkpt>
      <trkpt lat="40.00344" lon="9.31268">
        <ele>1573</ele>
        <time>2012-11-09T10:53:05Z</time>
      </trkpt>
      <trkpt lat="40.00339" lon="9.3128">
        <ele>1571</ele>
        <time>2012-11-09T10:53:09Z</time>
      </trkpt>
      <trkpt lat="40.00309" lon="9.31295">
        <ele>1568.6</ele>
        <time>2012-11-09T10:53:17Z</time>
      </trkpt>
      <trkpt lat="40.00293" lon="9.31312">
        <ele>1566.5</ele>
        <time>2012-11-09T10:53:27Z</time>
      </trkpt>
      <trkpt lat="40.00234" lon="9.31338">
        <ele>1547.8</ele>
        <time>2012-11-09T10:53:49Z</time>
      </trkpt>
      <trkpt lat="40.00201" lon="9.31326">
        <ele>1540.5</ele>
        <time>2012-11-09T10:53:59Z</time>
      </trkpt>
      <trkpt lat="40.00181" lon="9.31314">
        <ele>1540</ele>
        <time>2012-11-09T10:54:06Z</time>
      </trkpt>
      <trkpt lat="40.00167" lon="9.31312">
        <ele>1537.7</ele>
        <time>2012-11-09T10:54:15Z</time>
      </trkpt>
      <trkpt lat="40.00156" lon="9.31285">
        <ele>1535.6</ele>
        <time>2012-11-09T10:54:26Z</time>
      </trkpt>
      <trkpt lat="40.00149" lon="9.31287">
        <ele>1538.5</ele>
        <time>2012-11-09T10:54:48Z</time>
      </trkpt>
      <trkpt lat="40.00152" lon="9.31284">
        <ele>1536.4</ele>
        <time>2012-11-09T10:55:07Z</time>
      </trkpt>
      <trkpt lat="40.00152" lon="9.31274">
        <ele>1536</ele>
        <time>2012-11-09T10:55:10Z</time>
      </trkpt>
      <trkpt lat="40.00132" lon="9.31214">
        <ele>1530.3</ele>
        <time>2012-11-09T10:55:20Z</time>
      </trkpt>
      <trkpt lat="40.00124" lon="9.31201">
        <ele>1528.9</ele>
        <time>2012-11-09T10:55:22Z</time>
      </trkpt>
      <trkpt lat="40.00101" lon="9.31175">
        <ele>1525.7</ele>
        <time>2012-11-09T10:55:26Z</time>
      </trkpt>
      <trkpt lat="40.00076" lon="9.31153">
        <ele>1523.5</ele>
        <time>2012-11-09T10:55:31Z</time>
      </trkpt>
      <trkpt lat="40.00016" lon="9.31135">
        <ele>1520.1</ele>
        <time>2012-11-09T10:55:43Z</time>
      </trkpt>
      <trkpt lat="39.99979" lon="9.3114">
        <ele>1517.9</ele>
        <time>2012-11-09T10:55:50Z</time>
      </trkpt>
      <trkpt lat="39.99924" lon="9.31155">
        <ele>1514.1</ele>
        <time>2012-11-09T10:56:00Z</time>
      </trkpt>
      <trkpt lat="39.99904" lon="9.31156">
        <ele>1512.8</ele>
        <time>2012-11-09T10:56:04Z</time>
      </trkpt>
      <trkpt lat="39.99893" lon="9.31151">
        <ele>1510.2</ele>
        <time>2012-11-09T10:56:55Z</time>
      </trkpt>
      <trkpt lat="39.99882" lon="9.31136">
        <ele>1508.8</ele>
        <time>2012-11-09T10:57:01Z</time>
      </trkpt>
      <trkpt lat="39.99862" lon="9.31098">
        <ele>1508.1</ele>
        <time>2012-11-09T10:57:08Z</time>
      </trkpt>
      <trkpt lat="39.99846" lon="9.31078">
        <ele>1507.4</ele>
        <time>2012-11-09T10:57:11Z</time>
      </trkpt>
      <trkpt lat="39.99801" lon="9.31041">
        <ele>1502.7</ele>
        <time>2012-11-09T10:57:19Z</time>
      </trkpt>
      <trkpt lat="39.9975" lon="9.30985">
        <ele>1493.6</ele>
        <time>2012-11-09T10:57:31Z</time>
      </trkpt>
      <trkpt lat="39.99706" lon="9.30951">
        <ele>1484.3</ele>
        <time>2012-11-09T10:57:37Z</time>
      </trkpt>
      <trkpt lat="39.9967" lon="9.30912">
        <ele>1477.7</ele>
        <time>2012-11-09T10:57:42Z</time>
      </trkpt>
      <trkpt lat="39.99606" lon="9.30855">
        <ele>1472.4</ele>
        <time>2012-11-09T10:57:53Z</time>
      </trkpt>
      <trkpt lat="39.99572" lon="9.30819">
        <ele>1469.8</ele>
        <time>2012-11-09T10:58:03Z</time>
      </trkpt>
      <trkpt lat="39.99534" lon="9.30786">
        <ele>1467.5</ele>
        <time>2012-11-09T10:58:13Z</time>
      </trkpt>
      <trkpt lat="39.99485" lon="9.30731">
        <ele>1461.9</ele>
        <time>2012-11-09T10:58:24Z</time>
      </trkpt>
      <trkpt lat="39.99466" lon="9.30696">
        <ele>1457.7</ele>
        <time>2012-11-09T10:58:29Z</time>
      </trkpt>
      <trkpt lat="39.99415" lon="9.30576">
        <ele>1433.6</ele>
        <time>2012-11-09T10:58:44Z</time>
      </trkpt>
      <trkpt lat="39.99405" lon="9.3052">
        <ele>1424.6</ele>
        <time>2012-11-09T10:58:50Z</time>
      </trkpt>
      <trkpt lat="39.99402" lon="9.30488">
        <ele>1423.4</ele>
        <time>2012-11-09T10:58:53Z</time>
      </trkpt>
      <trkpt lat="39.9939" lon="9.30434">
        <ele>1418.5</ele>
        <time>2012-11-09T10:58:58Z</time>
      </trkpt>
      <trkpt lat="39.9939" lon="9.30393">
        <ele>1415.6</ele>
        <time>2012-11-09T10:59:02Z</time>
      </trkpt>
      <trkpt lat="39.99394" lon="9.30353">
        <ele>1413.1</ele>
        <time>2012-11-09T10:59:08Z</time>
      </trkpt>
      <trkpt lat="39.99413" lon="9.30365">
        <ele>1411.5</ele>
        <time>2012-11-09T10:59:16Z</time>
      </trkpt>
      <trkpt lat="39.99424" lon="9.30384">
        <ele>1408.4</ele>
        <time>2012-11-09T11:00:38Z</time>
      </trkpt>
      <trkpt lat="39.99437" lon="9.30454">
        <ele>1407</ele>
        <time>2012-11-09T11:00:51Z</time>
      </trkpt>
      <trkpt lat="39.99447" lon="9.30468">
        <ele>1407</ele>
        <time>2012-11-09T11:00:53Z</time>
      </trkpt>
      <trkpt lat="39.99462" lon="9.30479">
        <ele>1407.1</ele>
        <time>2012-11-09T11:00:55Z</time>
      </trkpt>
      <trkpt lat="39.99487" lon="9.30485">
        <ele>1407.1</ele>
        <time>2012-11-09T11:00:58Z</time>
      </trkpt>
      <trkpt lat="39.99559" lon="9.30489">
        <ele>1401.1</ele>
        <time>2012-11-09T11:01:06Z</time>
      </trkpt>
      <trkpt lat="39.99632" lon="9.30522">
        <ele>1394.3</ele>
        <time>2012-11-09T11:01:15Z</time>
      </trkpt>
      <trkpt lat="39.99667" lon="9.30512">
        <ele>1386.3</ele>
        <time>2012-11-09T11:01:20Z</time>
      </trkpt>
      <trkpt lat="39.99679" lon="9.30498">
        <ele>1386.3</ele>
        <time>2012-11-09T11:01:22Z</time>
      </trkpt>
      <trkpt lat="39.99711" lon="9.30447">
        <ele>1381.6</ele>
        <time>2012-11-09T11:01:29Z</time>
      </trkpt>
      <trkpt lat="39.99768" lon="9.30275">
        <ele>1330.3</ele>
        <time>2012-11-09T11:01:49Z</time>
      </trkpt>
      <trkpt lat="39.99784" lon="9.30248">
        <ele>1324.1</ele>
        <time>2012-11-09T11:01:53Z</time>
      </trkpt>
      <trkpt lat="39.99824" lon="9.30225">
        <ele>1318.5</ele>
        <time>2012-11-09T11:01:59Z</time>
      </trkpt>
      <trkpt lat="39.9984" lon="9.30219">
        <ele>1318.1</ele>
        <time>2012-11-09T11:02:01Z</time>
      </trkpt>
      <trkpt lat="39.99879" lon="9.30214">
        <ele>1317.1</ele>
        <time>2012-11-09T11:02:06Z</time>
      </trkpt>
      <trkpt lat="39.99892" lon="9.30216">
        <ele>1318</ele>
        <time>2012-11-09T11:02:08Z</time>
      </trkpt>
      <trkpt lat="39.99938" lon="9.30278">
        <ele>1314.2</ele>
        <time>2012-11-09T11:02:20Z</time>
      </trkpt>
      <trkpt lat="39.99947" lon="9.30298">
        <ele>1314</ele>
        <time>2012-11-09T11:02:26Z</time>
      </trkpt>
      <trkpt lat="39.99955" lon="9.30302">
        <ele>1313</ele>
        <time>2012-11-09T11:02:30Z</time>
      </trkpt>
      <trkpt lat="39.99966" lon="9.30294">
        <ele>1310.7</ele>
        <time>2012-11-09T11:02:35Z</time>
      </trkpt>
      <trkpt lat="39.9997" lon="9.30279">
        <ele>1310.2</ele>
        <time>2012-11-09T11:02:39Z</time>
      </trkpt>
      <trkpt lat="39.99972" lon="9.30251">
        <ele>1308.1</ele>
        <time>2012-11-09T11:02:45Z</time>
      </trkpt>
      <trkpt lat="39.99969" lon="9.30227">
        <ele>1308.9</ele>
        <time>2012-11-09T11:02:50Z</time>
      </trkpt>
      <trkpt lat="39.99972" lon="9.302">
        <ele>1306.6</ele>
        <time>2012-11-09T11:02:55Z</time>
      </trkpt>
      <trkpt lat="39.99987" lon="9.30136">
        <ele>1304.2</ele>
        <time>2012-11-09T11:03:03Z</time>
      </trkpt>
      <trkpt lat="39.99997" lon="9.30131">
        <ele>1303.7</ele>
        <time>2012-11-09T11:03:05Z</time>
      </trkpt>
      <trkpt lat="40.00017" lon="9.3014">
        <ele>1302.6</ele>
        <time>2012-11-09T11:03:10Z</time>
      </trkpt>
      <trkpt lat="40.00028" lon="9.30135">
        <ele>1301.1</ele>
        <time>2012-11-09T11:03:15Z</time>
      </trkpt>
      <trkpt lat="40.00029" lon="9.30131">
        <ele>1300.8</ele>
        <time>2012-11-09T11:03:17Z</time>
      </trkpt>
      <trkpt lat="40.00018" lon="9.30101">
        <ele>1299.3</ele>
        <time>2012-11-09T11:03:28Z</time>
      </trkpt>
      <trkpt lat="40.00005" lon="9.30078">
        <ele>1298.8</ele>
        <time>2012-11-09T11:04:29Z</time>
      </trkpt>
      <trkpt lat="39.99964" lon="9.30043">
        <ele>1299.1</ele>
        <time>2012-11-09T11:04:49Z</time>
      </trkpt>
      <trkpt lat="39.99957" lon="9.30029">
        <ele>1299.8</ele>
        <time>2012-11-09T11:04:55Z</time>
      </trkpt>
      <trkpt lat="39.99936" lon="9.30027">
        <ele>1304.7</ele>
        <time>2012-11-09T11:05:07Z</time>
      </trkpt>
      <trkpt lat="39.99889" lon="9.30008">
        <ele>1309.4</ele>
        <time>2012-11-09T11:05:55Z</time>
      </trkpt>
      <trkpt lat="39.99867" lon="9.30004">
        <ele>1311.5</ele>
        <time>2012-11-09T11:06:12Z</time>
      </trkpt>
      <trkpt lat="39.99852" lon="9.29997">
        <ele>1313.3</ele>
        <time>2012-11-09T11:06:24Z</time>
      </trkpt>
      <trkpt lat="39.9982" lon="9.29994">
        <ele>1316.1</ele>
        <time>2012-11-09T11:06:49Z</time>
      </trkpt>
      <trkpt lat="39.99769" lon="9.29962">
        <ele>1323.5</ele>
        <time>2012-11-09T11:07:27Z</time>
      </trkpt>
      <trkpt lat="39.99729" lon="9.29949">
        <ele>1328.4</ele>
        <time>2012-11-09T11:07:52Z</time>
      </trkpt>
      <trkpt lat="39.99706" lon="9.29929">
        <ele>1332.4</ele>
        <time>2012-11-09T11:08:05Z</time>
      </trkpt>
      <trkpt lat="39.99697" lon="9.29908">
        <ele>1334.1</ele>
        <time>2012-11-09T11:08:14Z</time>
      </trkpt>
      <trkpt lat="39.99695" lon="9.29872">
        <ele>1334.7</ele>
        <time>2012-11-09T11:08:23Z</time>
      </trkpt>
      <trkpt lat="39.99685" lon="9.29806">
        <ele>1337.1</ele>
        <time>2012-11-09T11:08:45Z</time>
      </trkpt>
      <trkpt lat="39.99671" lon="9.29773">
        <ele>1338.9</ele>
        <time>2012-11-09T11:08:58Z</time>
      </trkpt>
      <trkpt lat="39.99646" lon="9.29702">
        <ele>1345.1</ele>
        <time>2012-11-09T11:09:40Z</time>
      </trkpt>
      <trkpt lat="39.99644" lon="9.29696">
        <ele>1346.1</ele>
        <time>2012-11-09T11:09:44Z</time>
      </trkpt>
      <trkpt lat="39.99635" lon="9.2969">
        <ele>1348.2</ele>
        <time>2012-11-09T11:09:51Z</time>
      </trkpt>
      <trkpt lat="39.99623" lon="9.29675">
        <ele>1351</ele>
        <time>2012-11-09T11:10:07Z</time>
      </trkpt>
      <trkpt lat="39.99618" lon="9.29676">
        <ele>1351</ele>
        <time>2012-11-09T11:10:21Z</time>
      </trkpt>
      <trkpt lat="39.99609" lon="9.2967">
        <ele>1353.6</ele>
        <time>2012-11-09T11:10:35Z</time>
      </trkpt>
      <trkpt lat="39.99601" lon="9.29654">
        <ele>1357.2</ele>
        <time>2012-11-09T11:10:49Z</time>
      </trkpt>
      <trkpt lat="39.99598" lon="9.2964">
        <ele>1360.9</ele>
        <time>2012-11-09T11:10:58Z</time>
      </trkpt>
      <trkpt lat="39.99602" lon="9.29627">
        <ele>1363.5</ele>
        <time>2012-11-09T11:13:31Z</time>
      </trkpt>
      <trkpt lat="39.99632" lon="9.2961">
        <ele>1361.6</ele>
        <time>2012-11-09T11:13:38Z</time>
      </trkpt>
      <trkpt lat="39.99665" lon="9.29607">
        <ele>1361.1</ele>
        <time>2012-11-09T11:13:42Z</time>
      </trkpt>
      <trkpt lat="39.99678" lon="9.29599">
        <ele>1361.2</ele>
        <time>2012-11-09T11:13:44Z</time>
      </trkpt>
      <trkpt lat="39.99685" lon="9.29582">
        <ele>1361</ele>
        <time>2012-11-09T11:13:46Z</time>
      </trkpt>
      <trkpt lat="39.99696" lon="9.29519">
        <ele>1358.6</ele>
        <time>2012-11-09T11:13:52Z</time>
      </trkpt>
      <trkpt lat="39.99711" lon="9.29488">
        <ele>1357</ele>
        <time>2012-11-09T11:13:55Z</time>
      </trkpt>
      <trkpt lat="39.99769" lon="9.29412">
        <ele>1349.6</ele>
        <time>2012-11-09T11:14:03Z</time>
      </trkpt>
      <trkpt lat="39.99845" lon="9.29349">
        <ele>1342.7</ele>
        <time>2012-11-09T11:14:12Z</time>
      </trkpt>
      <trkpt lat="39.99871" lon="9.29337">
        <ele>1341.3</ele>
        <time>2012-11-09T11:14:16Z</time>
      </trkpt>
      <trkpt lat="39.99874" lon="9.29333">
        <ele>1341.1</ele>
        <time>2012-11-09T11:14:17Z</time>
      </trkpt>
      <trkpt lat="39.99876" lon="9.29319">
        <ele>1340</ele>
        <time>2012-11-09T11:14:19Z</time>
      </trkpt>
      <trkpt lat="39.99848" lon="9.29231">
        <ele>1333.1</ele>
        <time>2012-11-09T11:14:29Z</time>
      </trkpt>
      <trkpt lat="39.99823" lon="9.29201">
        <ele>1329.2</ele>
        <time>2012-11-09T11:14:33Z</time>
      </trkpt>
      <trkpt lat="39.99816" lon="9.29184">
        <ele>1328.1</ele>
        <time>2012-11-09T11:14:35Z</time>
      </trkpt>
      <trkpt lat="39.99814" lon="9.29152">
        <ele>1325.9</ele>
        <time>2012-11-09T11:14:38Z</time>
      </trkpt>
      <trkpt lat="39.99816" lon="9.29142">
        <ele>1324.8</ele>
        <time>2012-11-09T11:14:39Z</time>
      </trkpt>
      <trkpt lat="39.99825" lon="9.29126">
        <ele>1323.3</ele>
        <time>2012-11-09T11:14:41Z</time>
      </trkpt>
      <trkpt lat="39.99836" lon="9.29116">
        <ele>1322.5</ele>
        <time>2012-11-09T11:14:43Z</time>
      </trkpt>
      <trkpt lat="39.99843" lon="9.29114">
        <ele>1322.5</ele>
        <time>2012-11-09T11:14:44Z</time>
      </trkpt>
      <trkpt lat="39.99913" lon="9.29114">
        <ele>1319.3</ele>
        <time>2012-11-09T11:14:52Z</time>
      </trkpt>
      <trkpt lat="39.99963" lon="9.29104">
        <ele>1312</ele>
        <time>2012-11-09T11:14:57Z</time>
      </trkpt>
      <trkpt lat="39.99975" lon="9.29106">
        <ele>1311</ele>
        <time>2012-11-09T11:14:59Z</time>
      </trkpt>
      <trkpt lat="39.99984" lon="9.291">
        <ele>1310.3</ele>
        <time>2012-11-09T11:15:01Z</time>
      </trkpt>
      <trkpt lat="39.9999" lon="9.29086">
        <ele>1304.3</ele>
        <time>2012-11-09T11:15:03Z</time>
      </trkpt>
      <trkpt lat="39.99984" lon="9.29078">
        <ele>1302.7</ele>
        <time>2012-11-09T11:15:31Z</time>
      </trkpt>
      <trkpt lat="39.99977" lon="9.2908">
        <ele>1291.8</ele>
        <time>2012-11-09T11:15:48Z</time>
      </trkpt>
      <trkpt lat="39.99952" lon="9.29075">
        <ele>1291.3</ele>
        <time>2012-11-09T11:15:53Z</time>
      </trkpt>
      <trkpt lat="39.99913" lon="9.2906">
        <ele>1292</ele>
        <time>2012-11-09T11:15:58Z</time>
      </trkpt>
      <trkpt lat="39.99877" lon="9.29039">
        <ele>1292.4</ele>
        <time>2012-11-09T11:16:03Z</time>
      </trkpt>
      <trkpt lat="39.99847" lon="9.29028">
        <ele>1290.9</ele>
        <time>2012-11-09T11:16:10Z</time>
      </trkpt>
      <trkpt lat="39.99837" lon="9.2902">
        <ele>1292.4</ele>
        <time>2012-11-09T11:16:13Z</time>
      </trkpt>
      <trkpt lat="39.99802" lon="9.29015">
        <ele>1291.4</ele>
        <time>2012-11-09T11:16:19Z</time>
      </trkpt>
      <trkpt lat="39.99787" lon="9.29016">
        <ele>1291.3</ele>
        <time>2012-11-09T11:16:21Z</time>
      </trkpt>
      <trkpt lat="39.99764" lon="9.29025">
        <ele>1291</ele>
        <time>2012-11-09T11:16:24Z</time>
      </trkpt>
      <trkpt lat="39.99751" lon="9.29038">
        <ele>1290.1</ele>
        <time>2012-11-09T11:16:26Z</time>
      </trkpt>
      <trkpt lat="39.99734" lon="9.29062">
        <ele>1288.6</ele>
        <time>2012-11-09T11:16:29Z</time>
      </trkpt>
      <trkpt lat="39.99725" lon="9.2908">
        <ele>1288.3</ele>
        <time>2012-11-09T11:16:31Z</time>
      </trkpt>
      <trkpt lat="39.99713" lon="9.29191">
        <ele>1279.2</ele>
        <time>2012-11-09T11:16:40Z</time>
      </trkpt>
      <trkpt lat="39.99708" lon="9.29214">
        <ele>1278</ele>
        <time>2012-11-09T11:16:43Z</time>
      </trkpt>
      <trkpt lat="39.99705" lon="9.29216">
        <ele>1276.8</ele>
        <time>2012-11-09T11:16:44Z</time>
      </trkpt>
      <trkpt lat="39.99699" lon="9.29208">
        <ele>1274.4</ele>
        <time>2012-11-09T11:16:47Z</time>
      </trkpt>
      <trkpt lat="39.99695" lon="9.29178">
        <ele>1268.5</ele>
        <time>2012-11-09T11:16:52Z</time>
      </trkpt>
      <trkpt lat="39.99683" lon="9.29165">
        <ele>1269.7</ele>
        <time>2012-11-09T11:16:54Z</time>
      </trkpt>
      <trkpt lat="39.99654" lon="9.29139">
        <ele>1268.2</ele>
        <time>2012-11-09T11:16:58Z</time>
      </trkpt>
      <trkpt lat="39.99571" lon="9.29078">
        <ele>1261.1</ele>
        <time>2012-11-09T11:17:08Z</time>
      </trkpt>
      <trkpt lat="39.99567" lon="9.29078">
        <ele>1260.6</ele>
        <time>2012-11-09T11:17:09Z</time>
      </trkpt>
      <trkpt lat="39.99559" lon="9.29086">
        <ele>1259.7</ele>
        <time>2012-11-09T11:17:11Z</time>
      </trkpt>
      <trkpt lat="39.99556" lon="9.29118">
        <ele>1258.1</ele>
        <time>2012-11-09T11:17:15Z</time>
      </trkpt>
      <trkpt lat="39.99544" lon="9.29156">
        <ele>1255</ele>
        <time>2012-11-09T11:17:19Z</time>
      </trkpt>
      <trkpt lat="39.99541" lon="9.29197">
        <ele>1252.2</ele>
        <time>2012-11-09T11:17:23Z</time>
      </trkpt>
      <trkpt lat="39.99537" lon="9.29205">
        <ele>1250.4</ele>
        <time>2012-11-09T11:17:25Z</time>
      </trkpt>
      <trkpt lat="39.99532" lon="9.29204">
        <ele>1248.3</ele>
        <time>2012-11-09T11:17:29Z</time>
      </trkpt>
      <trkpt lat="39.9953" lon="9.29208">
        <ele>1248.1</ele>
        <time>2012-11-09T11:17:31Z</time>
      </trkpt>
      <trkpt lat="39.99535" lon="9.2921">
        <ele>1246.3</ele>
        <time>2012-11-09T11:17:34Z</time>
      </trkpt>
      <trkpt lat="39.99541" lon="9.29197">
        <ele>1244.2</ele>
        <time>2012-11-09T11:17:37Z</time>
      </trkpt>
      <trkpt lat="39.99543" lon="9.29174">
        <ele>1243.4</ele>
        <time>2012-11-09T11:17:40Z</time>
      </trkpt>
      <trkpt lat="39.9954" lon="9.29119">
        <ele>1242.5</ele>
        <time>2012-11-09T11:17:46Z</time>
      </trkpt>
      <trkpt lat="39.99519" lon="9.29048">
        <ele>1239.6</ele>
        <time>2012-11-09T11:17:53Z</time>
      </trkpt>
      <trkpt lat="39.99517" lon="9.29029">
        <ele>1239.1</ele>
        <time>2012-11-09T11:17:55Z</time>
      </trkpt>
      <trkpt lat="39.99519" lon="9.29001">
        <ele>1236.9</ele>
        <time>2012-11-09T11:17:58Z</time>
      </trkpt>
      <trkpt lat="39.99524" lon="9.28982">
        <ele>1236</ele>
        <time>2012-11-09T11:18:00Z</time>
      </trkpt>
      <trkpt lat="39.99549" lon="9.2895">
        <ele>1234</ele>
        <time>2012-11-09T11:18:04Z</time>
      </trkpt>
      <trkpt lat="39.99561" lon="9.28941">
        <ele>1231.9</ele>
        <time>2012-11-09T11:18:06Z</time>
      </trkpt>
      <trkpt lat="39.99567" lon="9.28942">
        <ele>1231</ele>
        <time>2012-11-09T11:18:07Z</time>
      </trkpt>
      <trkpt lat="39.99576" lon="9.28952">
        <ele>1229.7</ele>
        <time>2012-11-09T11:18:09Z</time>
      </trkpt>
      <trkpt lat="39.99589" lon="9.28975">
        <ele>1228.8</ele>
        <time>2012-11-09T11:18:12Z</time>
      </trkpt>
      <trkpt lat="39.99603" lon="9.28991">
        <ele>1228</ele>
        <time>2012-11-09T11:18:14Z</time>
      </trkpt>
      <trkpt lat="39.99628" lon="9.29003">
        <ele>1226.4</ele>
        <time>2012-11-09T11:18:17Z</time>
      </trkpt>
      <trkpt lat="39.99643" lon="9.29016">
        <ele>1224.4</ele>
        <time>2012-11-09T11:18:20Z</time>
      </trkpt>
      <trkpt lat="39.99648" lon="9.29015">
        <ele>1224</ele>
        <time>2012-11-09T11:18:21Z</time>
      </trkpt>
      <trkpt lat="39.99655" lon="9.28979">
        <ele>1220.5</ele>
        <time>2012-11-09T11:18:24Z</time>
      </trkpt>
      <trkpt lat="39.99655" lon="9.28958">
        <ele>1219.2</ele>
        <time>2012-11-09T11:18:26Z</time>
      </trkpt>
      <trkpt lat="39.99651" lon="9.2893">
        <ele>1215.5</ele>
        <time>2012-11-09T11:18:29Z</time>
      </trkpt>
      <trkpt lat="39.99654" lon="9.28914">
        <ele>1214.5</ele>
        <time>2012-11-09T11:18:31Z</time>
      </trkpt>
      <trkpt lat="39.9968" lon="9.28883">
        <ele>1213.1</ele>
        <time>2012-11-09T11:18:36Z</time>
      </trkpt>
      <trkpt lat="39.99717" lon="9.28822">
        <ele>1209.6</ele>
        <time>2012-11-09T11:18:42Z</time>
      </trkpt>
      <trkpt lat="39.9973" lon="9.28808">
        <ele>1208.6</ele>
        <time>2012-11-09T11:18:44Z</time>
      </trkpt>
      <trkpt lat="39.99756" lon="9.28794">
        <ele>1205.9</ele>
        <time>2012-11-09T11:18:47Z</time>
      </trkpt>
      <trkpt lat="39.99786" lon="9.28786">
        <ele>1200.5</ele>
        <time>2012-11-09T11:18:50Z</time>
      </trkpt>
      <trkpt lat="39.99817" lon="9.28784">
        <ele>1194.9</ele>
        <time>2012-11-09T11:18:54Z</time>
      </trkpt>
      <trkpt lat="39.99822" lon="9.2878">
        <ele>1194.3</ele>
        <time>2012-11-09T11:18:55Z</time>
      </trkpt>
      <trkpt lat="39.99824" lon="9.2875">
        <ele>1193.4</ele>
        <time>2012-11-09T11:18:58Z</time>
      </trkpt>
      <trkpt lat="39.99809" lon="9.2868">
        <ele>1185.8</ele>
        <time>2012-11-09T11:19:05Z</time>
      </trkpt>
      <trkpt lat="39.99813" lon="9.28633">
        <ele>1183.7</ele>
        <time>2012-11-09T11:19:09Z</time>
      </trkpt>
      <trkpt lat="39.99828" lon="9.2856">
        <ele>1179.7</ele>
        <time>2012-11-09T11:19:15Z</time>
      </trkpt>
      <trkpt lat="39.99836" lon="9.28538">
        <ele>1177.4</ele>
        <time>2012-11-09T11:19:17Z</time>
      </trkpt>
      <trkpt lat="39.99846" lon="9.28524">
        <ele>1175</ele>
        <time>2012-11-09T11:19:19Z</time>
      </trkpt>
      <trkpt lat="39.99862" lon="9.28518">
        <ele>1173.2</ele>
        <time>2012-11-09T11:19:21Z</time>
      </trkpt>
      <trkpt lat="39.99894" lon="9.28523">
        <ele>1169.8</ele>
        <time>2012-11-09T11:19:25Z</time>
      </trkpt>
      <trkpt lat="39.999" lon="9.28518">
        <ele>1168.7</ele>
        <time>2012-11-09T11:19:27Z</time>
      </trkpt>
      <trkpt lat="39.99903" lon="9.2851">
        <ele>1169.4</ele>
        <time>2012-11-09T11:19:29Z</time>
      </trkpt>
      <trkpt lat="39.99871" lon="9.28441">
        <ele>1156.7</ele>
        <time>2012-11-09T11:19:49Z</time>
      </trkpt>
      <trkpt lat="39.9985" lon="9.28419">
        <ele>1155</ele>
        <time>2012-11-09T11:19:59Z</time>
      </trkpt>
      <trkpt lat="39.99807" lon="9.28411">
        <ele>1160.5</ele>
        <time>2012-11-09T11:20:16Z</time>
      </trkpt>
      <trkpt lat="39.99763" lon="9.28409">
        <ele>1163.4</ele>
        <time>2012-11-09T11:20:35Z</time>
      </trkpt>
      <trkpt lat="39.99746" lon="9.28412">
        <ele>1164.1</ele>
        <time>2012-11-09T11:20:43Z</time>
      </trkpt>
      <trkpt lat="39.9971" lon="9.28428">
        <ele>1170.2</ele>
        <time>2012-11-09T11:21:05Z</time>
      </trkpt>
      <trkpt lat="39.99695" lon="9.28429">
        <ele>1172.9</ele>
        <time>2012-11-09T11:21:16Z</time>
      </trkpt>
      <trkpt lat="39.99689" lon="9.28424">
        <ele>1173.2</ele>
        <time>2012-11-09T11:21:21Z</time>
      </trkpt>
      <trkpt lat="39.99669" lon="9.28388">
        <ele>1175</ele>
        <time>2012-11-09T11:21:42Z</time>
      </trkpt>
      <trkpt lat="39.99639" lon="9.28347">
        <ele>1174.9</ele>
        <time>2012-11-09T11:22:05Z</time>
      </trkpt>
      <trkpt lat="39.99636" lon="9.28341">
        <ele>1175.2</ele>
        <time>2012-11-09T11:22:08Z</time>
      </trkpt>
      <trkpt lat="39.99636" lon="9.28325">
        <ele>1177.5</ele>
        <time>2012-11-09T11:22:14Z</time>
      </trkpt>
      <trkpt lat="39.99644" lon="9.28276">
        <ele>1179</ele>
        <time>2012-11-09T11:22:30Z</time>
      </trkpt>
      <trkpt lat="39.99655" lon="9.28229">
        <ele>1182.4</ele>
        <time>2012-11-09T11:22:47Z</time>
      </trkpt>
      <trkpt lat="39.99661" lon="9.2821">
        <ele>1183.1</ele>
        <time>2012-11-09T11:22:55Z</time>
      </trkpt>
      <trkpt lat="39.99679" lon="9.2817">
        <ele>1185.7</ele>
        <time>2012-11-09T11:23:12Z</time>
      </trkpt>
      <trkpt lat="39.99687" lon="9.28139">
        <ele>1188.2</ele>
        <time>2012-11-09T11:23:24Z</time>
      </trkpt>
      <trkpt lat="39.99687" lon="9.28129">
        <ele>1188.5</ele>
        <time>2012-11-09T11:23:29Z</time>
      </trkpt>
      <trkpt lat="39.99672" lon="9.2808">
        <ele>1198.6</ele>
        <time>2012-11-09T11:23:49Z</time>
      </trkpt>
      <trkpt lat="39.99665" lon="9.28067">
        <ele>1197.1</ele>
        <time>2012-11-09T11:23:55Z</time>
      </trkpt>
      <trkpt lat="39.99663" lon="9.28039">
        <ele>1199.4</ele>
        <time>2012-11-09T11:24:06Z</time>
      </trkpt>
      <trkpt lat="39.99673" lon="9.27969">
        <ele>1207.1</ele>
        <time>2012-11-09T11:24:37Z</time>
      </trkpt>
      <trkpt lat="39.99682" lon="9.27938">
        <ele>1209.6</ele>
        <time>2012-11-09T11:24:54Z</time>
      </trkpt>
      <trkpt lat="39.99686" lon="9.2789">
        <ele>1213.1</ele>
        <time>2012-11-09T11:25:19Z</time>
      </trkpt>
      <trkpt lat="39.99691" lon="9.27877">
        <ele>1214.6</ele>
        <time>2012-11-09T11:25:27Z</time>
      </trkpt>
      <trkpt lat="39.99709" lon="9.27854">
        <ele>1215</ele>
        <time>2012-11-09T11:25:43Z</time>
      </trkpt>
      <trkpt lat="39.9974" lon="9.27828">
        <ele>1216.7</ele>
        <time>2012-11-09T11:26:07Z</time>
      </trkpt>
      <trkpt lat="39.9976" lon="9.27818">
        <ele>1218.8</ele>
        <time>2012-11-09T11:26:21Z</time>
      </trkpt>
      <trkpt lat="39.99765" lon="9.27813">
        <ele>1219.4</ele>
        <time>2012-11-09T11:26:23Z</time>
      </trkpt>
      <trkpt lat="39.99769" lon="9.27795">
        <ele>1220</ele>
        <time>2012-11-09T11:26:26Z</time>
      </trkpt>
      <trkpt lat="39.99768" lon="9.27728">
        <ele>1220.2</ele>
        <time>2012-11-09T11:26:33Z</time>
      </trkpt>
      <trkpt lat="39.99771" lon="9.27678">
        <ele>1219.2</ele>
        <time>2012-11-09T11:26:37Z</time>
      </trkpt>
      <trkpt lat="39.99778" lon="9.27659">
        <ele>1218.4</ele>
        <time>2012-11-09T11:26:39Z</time>
      </trkpt>
      <trkpt lat="39.99807" lon="9.27635">
        <ele>1216.6</ele>
        <time>2012-11-09T11:26:43Z</time>
      </trkpt>
      <trkpt lat="39.9981" lon="9.27626">
        <ele>1217</ele>
        <time>2012-11-09T11:26:44Z</time>
      </trkpt>
      <trkpt lat="39.99801" lon="9.27596">
        <ele>1215.6</ele>
        <time>2012-11-09T11:26:49Z</time>
      </trkpt>
      <trkpt lat="39.99783" lon="9.27576">
        <ele>1214.2</ele>
        <time>2012-11-09T11:26:57Z</time>
      </trkpt>
      <trkpt lat="39.99751" lon="9.27549">
        <ele>1215.6</ele>
        <time>2012-11-09T11:27:15Z</time>
      </trkpt>
      <trkpt lat="39.99748" lon="9.27544">
        <ele>1215.5</ele>
        <time>2012-11-09T11:27:18Z</time>
      </trkpt>
      <trkpt lat="39.99746" lon="9.27529">
        <ele>1215.8</ele>
        <time>2012-11-09T11:27:27Z</time>
      </trkpt>
      <trkpt lat="39.9975" lon="9.27493">
        <ele>1220.8</ele>
        <time>2012-11-09T11:27:46Z</time>
      </trkpt>
      <trkpt lat="39.99765" lon="9.27449">
        <ele>1224</ele>
        <time>2012-11-09T11:28:10Z</time>
      </trkpt>
      <trkpt lat="39.99778" lon="9.27422">
        <ele>1226.2</ele>
        <time>2012-11-09T11:28:24Z</time>
      </trkpt>
      <trkpt lat="39.9978" lon="9.27411">
        <ele>1227.1</ele>
        <time>2012-11-09T11:28:36Z</time>
      </trkpt>
      <trkpt lat="39.99767" lon="9.27392">
        <ele>1226.8</ele>
        <time>2012-11-09T11:28:41Z</time>
      </trkpt>
      <trkpt lat="39.99728" lon="9.27358">
        <ele>1232.3</ele>
        <time>2012-11-09T11:29:11Z</time>
      </trkpt>
      <trkpt lat="39.99701" lon="9.27327">
        <ele>1234.2</ele>
        <time>2012-11-09T11:29:29Z</time>
      </trkpt>
      <trkpt lat="39.99681" lon="9.27311">
        <ele>1236.3</ele>
        <time>2012-11-09T11:29:40Z</time>
      </trkpt>
      <trkpt lat="39.99654" lon="9.27298">
        <ele>1237.8</ele>
        <time>2012-11-09T11:29:53Z</time>
      </trkpt>
      <trkpt lat="39.99595" lon="9.27297">
        <ele>1241.3</ele>
        <time>2012-11-09T11:30:23Z</time>
      </trkpt>
      <trkpt lat="39.99584" lon="9.27294">
        <ele>1242.1</ele>
        <time>2012-11-09T11:30:29Z</time>
      </trkpt>
      <trkpt lat="39.99572" lon="9.27286">
        <ele>1241.9</ele>
        <time>2012-11-09T11:30:37Z</time>
      </trkpt>
      <trkpt lat="39.99552" lon="9.2725">
        <ele>1245.2</ele>
        <time>2012-11-09T11:30:56Z</time>
      </trkpt>
      <trkpt lat="39.99546" lon="9.27231">
        <ele>1246.9</ele>
        <time>2012-11-09T11:31:05Z</time>
      </trkpt>
      <trkpt lat="39.99542" lon="9.27187">
        <ele>1249.6</ele>
        <time>2012-11-09T11:31:23Z</time>
      </trkpt>
      <trkpt lat="39.99542" lon="9.27131">
        <ele>1254.9</ele>
        <time>2012-11-09T11:31:46Z</time>
      </trkpt>
      <trkpt lat="39.99538" lon="9.27111">
        <ele>1256.3</ele>
        <time>2012-11-09T11:31:55Z</time>
      </trkpt>
      <trkpt lat="39.9948" lon="9.27068">
        <ele>1258.9</ele>
        <time>2012-11-09T11:32:28Z</time>
      </trkpt>
      <trkpt lat="39.99426" lon="9.27023">
        <ele>1264.4</ele>
        <time>2012-11-09T11:33:02Z</time>
      </trkpt>
      <trkpt lat="39.99418" lon="9.2701">
        <ele>1265.3</ele>
        <time>2012-11-09T11:33:09Z</time>
      </trkpt>
      <trkpt lat="39.99411" lon="9.26992">
        <ele>1268.3</ele>
        <time>2012-11-09T11:33:17Z</time>
      </trkpt>
      <trkpt lat="39.99404" lon="9.26962">
        <ele>1270.4</ele>
        <time>2012-11-09T11:33:29Z</time>
      </trkpt>
      <trkpt lat="39.99404" lon="9.26947">
        <ele>1271.7</ele>
        <time>2012-11-09T11:33:35Z</time>
      </trkpt>
      <trkpt lat="39.99408" lon="9.26923">
        <ele>1272.5</ele>
        <time>2012-11-09T11:33:43Z</time>
      </trkpt>
      <trkpt lat="39.99419" lon="9.26903">
        <ele>1272.5</ele>
        <time>2012-11-09T11:33:50Z</time>
      </trkpt>
      <trkpt lat="39.99446" lon="9.26863">
        <ele>1271.2</ele>
        <time>2012-11-09T11:34:05Z</time>
      </trkpt>
      <trkpt lat="39.9946" lon="9.2685">
        <ele>1270.2</ele>
        <time>2012-11-09T11:34:12Z</time>
      </trkpt>
      <trkpt lat="39.99504" lon="9.26824">
        <ele>1271</ele>
        <time>2012-11-09T11:34:31Z</time>
      </trkpt>
      <trkpt lat="39.9954" lon="9.2681">
        <ele>1271.1</ele>
        <time>2012-11-09T11:34:48Z</time>
      </trkpt>
      <trkpt lat="39.99539" lon="9.26807">
        <ele>1278.4</ele>
        <time>2012-11-09T11:36:16Z</time>
      </trkpt>
      <trkpt lat="39.99546" lon="9.26801">
        <ele>1281.7</ele>
        <time>2012-11-09T11:36:17Z</time>
      </trkpt>
      <trkpt lat="39.99579" lon="9.26802">
        <ele>1279.4</ele>
        <time>2012-11-09T11:36:29Z</time>
      </trkpt>
      <trkpt lat="39.99623" lon="9.2677">
        <ele>1275.2</ele>
        <time>2012-11-09T11:36:40Z</time>
      </trkpt>
      <trkpt lat="39.99665" lon="9.26749">
        <ele>1274.8</ele>
        <time>2012-11-09T11:36:50Z</time>
      </trkpt>
      <trkpt lat="39.99688" lon="9.26731">
        <ele>1274.7</ele>
        <time>2012-11-09T11:36:54Z</time>
      </trkpt>
      <trkpt lat="39.99737" lon="9.2668">
        <ele>1271.6</ele>
        <time>2012-11-09T11:37:03Z</time>
      </trkpt>
      <trkpt lat="39.99814" lon="9.2663">
        <ele>1269.2</ele>
        <time>2012-11-09T11:37:15Z</time>
      </trkpt>
      <trkpt lat="39.99825" lon="9.26616">
        <ele>1269.2</ele>
        <time>2012-11-09T11:37:17Z</time>
      </trkpt>
      <trkpt lat="39.99829" lon="9.26607">
        <ele>1269</ele>
        <time>2012-11-09T11:37:18Z</time>
      </trkpt>
      <trkpt lat="39.99836" lon="9.26564">
        <ele>1267.9</ele>
        <time>2012-11-09T11:37:22Z</time>
      </trkpt>
      <trkpt lat="39.99846" lon="9.26532">
        <ele>1267.2</ele>
        <time>2012-11-09T11:37:25Z</time>
      </trkpt>
      <trkpt lat="39.99858" lon="9.26505">
        <ele>1266.5</ele>
        <time>2012-11-09T11:37:28Z</time>
      </trkpt>
      <trkpt lat="39.99868" lon="9.2649">
        <ele>1265.1</ele>
        <time>2012-11-09T11:37:30Z</time>
      </trkpt>
      <trkpt lat="39.99879" lon="9.26478">
        <ele>1264.4</ele>
        <time>2012-11-09T11:37:32Z</time>
      </trkpt>
      <trkpt lat="39.99908" lon="9.26463">
        <ele>1263.4</ele>
        <time>2012-11-09T11:37:36Z</time>
      </trkpt>
      <trkpt lat="39.99928" lon="9.26441">
        <ele>1262.9</ele>
        <time>2012-11-09T11:37:40Z</time>
      </trkpt>
      <trkpt lat="39.99981" lon="9.26403">
        <ele>1264.8</ele>
        <time>2012-11-09T11:37:55Z</time>
      </trkpt>
      <trkpt lat="40.0001" lon="9.26387">
        <ele>1264.1</ele>
        <time>2012-11-09T11:38:02Z</time>
      </trkpt>
      <trkpt lat="40.00042" lon="9.26376">
        <ele>1262.7</ele>
        <time>2012-11-09T11:38:09Z</time>
      </trkpt>
      <trkpt lat="40.00071" lon="9.26373">
        <ele>1261.9</ele>
        <time>2012-11-09T11:38:16Z</time>
      </trkpt>
      <trkpt lat="40.00119" lon="9.26385">
        <ele>1259.2</ele>
        <time>2012-11-09T11:38:30Z</time>
      </trkpt>
      <trkpt lat="40.00152" lon="9.26426">
        <ele>1256.2</ele>
        <time>2012-11-09T11:38:44Z</time>
      </trkpt>
      <trkpt lat="40.00165" lon="9.26449">
        <ele>1255.5</ele>
        <time>2012-11-09T11:38:48Z</time>
      </trkpt>
      <trkpt lat="40.00176" lon="9.26454">
        <ele>1256.4</ele>
        <time>2012-11-09T11:38:50Z</time>
      </trkpt>
      <trkpt lat="40.00206" lon="9.2645">
        <ele>1254.3</ele>
        <time>2012-11-09T11:38:55Z</time>
      </trkpt>
      <trkpt lat="40.00224" lon="9.26453">
        <ele>1253.6</ele>
        <time>2012-11-09T11:38:58Z</time>
      </trkpt>
      <trkpt lat="40.0025" lon="9.26462">
        <ele>1253.9</ele>
        <time>2012-11-09T11:39:02Z</time>
      </trkpt>
      <trkpt lat="40.00287" lon="9.26453">
        <ele>1250.7</ele>
        <time>2012-11-09T11:39:07Z</time>
      </trkpt>
      <trkpt lat="40.00329" lon="9.26459">
        <ele>1247.5</ele>
        <time>2012-11-09T11:39:12Z</time>
      </trkpt>
      <trkpt lat="40.00399" lon="9.26447">
        <ele>1249.9</ele>
        <time>2012-11-09T11:39:20Z</time>
      </trkpt>
      <trkpt lat="40.00432" lon="9.26433">
        <ele>1252.5</ele>
        <time>2012-11-09T11:39:24Z</time>
      </trkpt>
      <trkpt lat="40.0046" lon="9.26439">
        <ele>1248.7</ele>
        <time>2012-11-09T11:39:28Z</time>
      </trkpt>
      <trkpt lat="40.00478" lon="9.26457">
        <ele>1245.9</ele>
        <time>2012-11-09T11:39:31Z</time>
      </trkpt>
      <trkpt lat="40.0051" lon="9.26506">
        <ele>1240.2</ele>
        <time>2012-11-09T11:39:37Z</time>
      </trkpt>
      <trkpt lat="40.00535" lon="9.26536">
        <ele>1238.7</ele>
        <time>2012-11-09T11:39:41Z</time>
      </trkpt>
      <trkpt lat="40.00557" lon="9.26554">
        <ele>1240</ele>
        <time>2012-11-09T11:39:44Z</time>
      </trkpt>
      <trkpt lat="40.0059" lon="9.26572">
        <ele>1240.5</ele>
        <time>2012-11-09T11:39:48Z</time>
      </trkpt>
      <trkpt lat="40.00616" lon="9.26603">
        <ele>1239.1</ele>
        <time>2012-11-09T11:39:52Z</time>
      </trkpt>
      <trkpt lat="40.00641" lon="9.26621">
        <ele>1238.2</ele>
        <time>2012-11-09T11:39:55Z</time>
      </trkpt>
      <trkpt lat="40.00668" lon="9.26633">
        <ele>1237.9</ele>
        <time>2012-11-09T11:39:59Z</time>
      </trkpt>
      <trkpt lat="40.00673" lon="9.2663">
        <ele>1238.5</ele>
        <time>2012-11-09T11:40:00Z</time>
      </trkpt>
      <trkpt lat="40.00676" lon="9.26623">
        <ele>1237.1</ele>
        <time>2012-11-09T11:40:01Z</time>
      </trkpt>
      <trkpt lat="40.00679" lon="9.26605">
        <ele>1234.7</ele>
        <time>2012-11-09T11:40:03Z</time>
      </trkpt>
      <trkpt lat="40.0068" lon="9.26575">
        <ele>1234</ele>
        <time>2012-11-09T11:40:07Z</time>
      </trkpt>
      <trkpt lat="40.00677" lon="9.26522">
        <ele>1232.7</ele>
        <time>2012-11-09T11:40:12Z</time>
      </trkpt>
      <trkpt lat="40.00685" lon="9.26432">
        <ele>1227.9</ele>
        <time>2012-11-09T11:40:19Z</time>
      </trkpt>
      <trkpt lat="40.00684" lon="9.26419">
        <ele>1228</ele>
        <time>2012-11-09T11:40:20Z</time>
      </trkpt>
      <trkpt lat="40.00673" lon="9.26384">
        <ele>1226.4</ele>
        <time>2012-11-09T11:40:23Z</time>
      </trkpt>
      <trkpt lat="40.00638" lon="9.26309">
        <ele>1219.9</ele>
        <time>2012-11-09T11:40:29Z</time>
      </trkpt>
      <trkpt lat="40.00628" lon="9.26297">
        <ele>1218.6</ele>
        <time>2012-11-09T11:40:30Z</time>
      </trkpt>
      <trkpt lat="40.00582" lon="9.26254">
        <ele>1212.7</ele>
        <time>2012-11-09T11:40:34Z</time>
      </trkpt>
      <trkpt lat="40.00564" lon="9.26229">
        <ele>1209.4</ele>
        <time>2012-11-09T11:40:36Z</time>
      </trkpt>
      <trkpt lat="40.00539" lon="9.2619">
        <ele>1205.9</ele>
        <time>2012-11-09T11:40:39Z</time>
      </trkpt>
      <trkpt lat="40.00524" lon="9.2615">
        <ele>1203.2</ele>
        <time>2012-11-09T11:40:42Z</time>
      </trkpt>
      <trkpt lat="40.00517" lon="9.2614">
        <ele>1201.6</ele>
        <time>2012-11-09T11:40:43Z</time>
      </trkpt>
      <trkpt lat="40.00473" lon="9.26108">
        <ele>1197</ele>
        <time>2012-11-09T11:40:47Z</time>
      </trkpt>
      <trkpt lat="40.00414" lon="9.2605">
        <ele>1189</ele>
        <time>2012-11-09T11:40:54Z</time>
      </trkpt>
      <trkpt lat="40.00401" lon="9.25999">
        <ele>1186.2</ele>
        <time>2012-11-09T11:40:58Z</time>
      </trkpt>
      <trkpt lat="40.00389" lon="9.25979">
        <ele>1185.9</ele>
        <time>2012-11-09T11:41:00Z</time>
      </trkpt>
      <trkpt lat="40.00371" lon="9.25962">
        <ele>1184.9</ele>
        <time>2012-11-09T11:41:02Z</time>
      </trkpt>
      <trkpt lat="40.00351" lon="9.25949">
        <ele>1182.3</ele>
        <time>2012-11-09T11:41:04Z</time>
      </trkpt>
      <trkpt lat="40.00318" lon="9.25937">
        <ele>1179.6</ele>
        <time>2012-11-09T11:41:07Z</time>
      </trkpt>
      <trkpt lat="40.00264" lon="9.25926">
        <ele>1176.2</ele>
        <time>2012-11-09T11:41:12Z</time>
      </trkpt>
      <trkpt lat="40.00238" lon="9.25906">
        <ele>1173.4</ele>
        <time>2012-11-09T11:41:15Z</time>
      </trkpt>
      <trkpt lat="40.00209" lon="9.25868">
        <ele>1171.3</ele>
        <time>2012-11-09T11:41:19Z</time>
      </trkpt>
      <trkpt lat="40.00195" lon="9.25817">
        <ele>1169.9</ele>
        <time>2012-11-09T11:41:23Z</time>
      </trkpt>
      <trkpt lat="40.00184" lon="9.25795">
        <ele>1168.9</ele>
        <time>2012-11-09T11:41:25Z</time>
      </trkpt>
      <trkpt lat="40.00155" lon="9.25757">
        <ele>1166.6</ele>
        <time>2012-11-09T11:41:29Z</time>
      </trkpt>
      <trkpt lat="40.00106" lon="9.2571">
        <ele>1164.5</ele>
        <time>2012-11-09T11:41:35Z</time>
      </trkpt>
      <trkpt lat="40.00094" lon="9.25693">
        <ele>1163.2</ele>
        <time>2012-11-09T11:41:37Z</time>
      </trkpt>
      <trkpt lat="40.00093" lon="9.25684">
        <ele>1162.3</ele>
        <time>2012-11-09T11:41:38Z</time>
      </trkpt>
      <trkpt lat="40.00097" lon="9.25673">
        <ele>1161.9</ele>
        <time>2012-11-09T11:41:40Z</time>
      </trkpt>
      <trkpt lat="40.00106" lon="9.25661">
        <ele>1162.3</ele>
        <time>2012-11-09T11:41:43Z</time>
      </trkpt>
      <trkpt lat="40.00108" lon="9.25645">
        <ele>1161.9</ele>
        <time>2012-11-09T11:41:46Z</time>
      </trkpt>
      <trkpt lat="40.00112" lon="9.25593">
        <ele>1162.9</ele>
        <time>2012-11-09T11:41:58Z</time>
      </trkpt>
      <trkpt lat="40.00111" lon="9.25554">
        <ele>1164.5</ele>
        <time>2012-11-09T11:42:09Z</time>
      </trkpt>
      <trkpt lat="40.00113" lon="9.25534">
        <ele>1165.4</ele>
        <time>2012-11-09T11:42:14Z</time>
      </trkpt>
      <trkpt lat="40.00112" lon="9.25516">
        <ele>1167.7</ele>
        <time>2012-11-09T11:42:20Z</time>
      </trkpt>
      <trkpt lat="40.0012" lon="9.25513">
        <ele>1167.5</ele>
        <time>2012-11-09T11:44:29Z</time>
      </trkpt>
      <trkpt lat="40.0012" lon="9.25506">
        <ele>1174.9</ele>
        <time>2012-11-09T11:44:39Z</time>
      </trkpt>
      <trkpt lat="40.00118" lon="9.25513">
        <ele>1164.6</ele>
        <time>2012-11-09T11:46:03Z</time>
      </trkpt>
      <trkpt lat="40.00119" lon="9.25491">
        <ele>1166.3</ele>
        <time>2012-11-09T11:46:17Z</time>
      </trkpt>
      <trkpt lat="40.0013" lon="9.25476">
        <ele>1165.7</ele>
        <time>2012-11-09T11:46:22Z</time>
      </trkpt>
      <trkpt lat="40.00204" lon="9.25462">
        <ele>1164.2</ele>
        <time>2012-11-09T11:46:35Z</time>
      </trkpt>
      <trkpt lat="40.00248" lon="9.25461">
        <ele>1164.3</ele>
        <time>2012-11-09T11:46:40Z</time>
      </trkpt>
      <trkpt lat="40.00334" lon="9.2542">
        <ele>1161.4</ele>
        <time>2012-11-09T11:46:48Z</time>
      </trkpt>
      <trkpt lat="40.00381" lon="9.25407">
        <ele>1159.9</ele>
        <time>2012-11-09T11:46:52Z</time>
      </trkpt>
      <trkpt lat="40.00418" lon="9.25392">
        <ele>1156.6</ele>
        <time>2012-11-09T11:46:55Z</time>
      </trkpt>
      <trkpt lat="40.00457" lon="9.25383">
        <ele>1153</ele>
        <time>2012-11-09T11:46:58Z</time>
      </trkpt>
      <trkpt lat="40.005" lon="9.25381">
        <ele>1147.6</ele>
        <time>2012-11-09T11:47:01Z</time>
      </trkpt>
      <trkpt lat="40.00524" lon="9.25373">
        <ele>1145.1</ele>
        <time>2012-11-09T11:47:03Z</time>
      </trkpt>
      <trkpt lat="40.00535" lon="9.25368">
        <ele>1143.6</ele>
        <time>2012-11-09T11:47:04Z</time>
      </trkpt>
      <trkpt lat="40.00589" lon="9.25322">
        <ele>1136.5</ele>
        <time>2012-11-09T11:47:09Z</time>
      </trkpt>
      <trkpt lat="40.00635" lon="9.25291">
        <ele>1132.5</ele>
        <time>2012-11-09T11:47:13Z</time>
      </trkpt>
      <trkpt lat="40.00645" lon="9.25284">
        <ele>1132.4</ele>
        <time>2012-11-09T11:47:14Z</time>
      </trkpt>
      <trkpt lat="40.0067" lon="9.25277">
        <ele>1130</ele>
        <time>2012-11-09T11:47:16Z</time>
      </trkpt>
      <trkpt lat="40.00682" lon="9.2527">
        <ele>1129.6</ele>
        <time>2012-11-09T11:47:17Z</time>
      </trkpt>
      <trkpt lat="40.00705" lon="9.25251">
        <ele>1128.5</ele>
        <time>2012-11-09T11:47:19Z</time>
      </trkpt>
      <trkpt lat="40.00734" lon="9.25215">
        <ele>1125.2</ele>
        <time>2012-11-09T11:47:22Z</time>
      </trkpt>
      <trkpt lat="40.00753" lon="9.25204">
        <ele>1122</ele>
        <time>2012-11-09T11:47:24Z</time>
      </trkpt>
      <trkpt lat="40.0076" lon="9.25204">
        <ele>1120.9</ele>
        <time>2012-11-09T11:47:25Z</time>
      </trkpt>
      <trkpt lat="40.00804" lon="9.25232">
        <ele>1118.3</ele>
        <time>2012-11-09T11:47:30Z</time>
      </trkpt>
      <trkpt lat="40.00816" lon="9.25236">
        <ele>1117.5</ele>
        <time>2012-11-09T11:47:31Z</time>
      </trkpt>
      <trkpt lat="40.00829" lon="9.25236">
        <ele>1117.1</ele>
        <time>2012-11-09T11:47:32Z</time>
      </trkpt>
      <trkpt lat="40.00851" lon="9.25229">
        <ele>1115.6</ele>
        <time>2012-11-09T11:47:34Z</time>
      </trkpt>
      <trkpt lat="40.00869" lon="9.25232">
        <ele>1112.8</ele>
        <time>2012-11-09T11:47:36Z</time>
      </trkpt>
      <trkpt lat="40.00883" lon="9.2525">
        <ele>1111</ele>
        <time>2012-11-09T11:47:38Z</time>
      </trkpt>
      <trkpt lat="40.00889" lon="9.25266">
        <ele>1109.3</ele>
        <time>2012-11-09T11:47:39Z</time>
      </trkpt>
      <trkpt lat="40.00896" lon="9.25276">
        <ele>1109.2</ele>
        <time>2012-11-09T11:47:40Z</time>
      </trkpt>
      <trkpt lat="40.00905" lon="9.25281">
        <ele>1109.1</ele>
        <time>2012-11-09T11:47:41Z</time>
      </trkpt>
      <trkpt lat="40.00934" lon="9.25282">
        <ele>1108.3</ele>
        <time>2012-11-09T11:47:44Z</time>
      </trkpt>
      <trkpt lat="40.00944" lon="9.25279">
        <ele>1108.1</ele>
        <time>2012-11-09T11:47:45Z</time>
      </trkpt>
      <trkpt lat="40.00951" lon="9.25274">
        <ele>1108.2</ele>
        <time>2012-11-09T11:47:46Z</time>
      </trkpt>
      <trkpt lat="40.00941" lon="9.25245">
        <ele>1106.5</ele>
        <time>2012-11-09T11:47:49Z</time>
      </trkpt>
      <trkpt lat="40.00939" lon="9.25235">
        <ele>1105.4</ele>
        <time>2012-11-09T11:47:50Z</time>
      </trkpt>
      <trkpt lat="40.00946" lon="9.25203">
        <ele>1102.5</ele>
        <time>2012-11-09T11:48:01Z</time>
      </trkpt>
      <trkpt lat="40.00944" lon="9.25192">
        <ele>1102.1</ele>
        <time>2012-11-09T11:48:02Z</time>
      </trkpt>
      <trkpt lat="40.00917" lon="9.25126">
        <ele>1094.6</ele>
        <time>2012-11-09T11:48:15Z</time>
      </trkpt>
      <trkpt lat="40.00905" lon="9.25051">
        <ele>1092.7</ele>
        <time>2012-11-09T11:48:23Z</time>
      </trkpt>
      <trkpt lat="40.0091" lon="9.25021">
        <ele>1090.4</ele>
        <time>2012-11-09T11:48:26Z</time>
      </trkpt>
      <trkpt lat="40.00925" lon="9.24986">
        <ele>1089.7</ele>
        <time>2012-11-09T11:48:30Z</time>
      </trkpt>
      <trkpt lat="40.00936" lon="9.24964">
        <ele>1089</ele>
        <time>2012-11-09T11:48:33Z</time>
      </trkpt>
      <trkpt lat="40.00957" lon="9.24942">
        <ele>1080.2</ele>
        <time>2012-11-09T11:56:12Z</time>
      </trkpt>
      <trkpt lat="40.0096" lon="9.24924">
        <ele>1080.3</ele>
        <time>2012-11-09T11:56:16Z</time>
      </trkpt>
      <trkpt lat="40.00959" lon="9.24913">
        <ele>1080.4</ele>
        <time>2012-11-09T11:56:18Z</time>
      </trkpt>
      <trkpt lat="40.00961" lon="9.2489">
        <ele>1080.1</ele>
        <time>2012-11-09T11:56:21Z</time>
      </trkpt>
      <trkpt lat="40.0096" lon="9.24879">
        <ele>1079.8</ele>
        <time>2012-11-09T11:56:22Z</time>
      </trkpt>
      <trkpt lat="40.00953" lon="9.24869">
        <ele>1079.8</ele>
        <time>2012-11-09T11:56:23Z</time>
      </trkpt>
      <trkpt lat="40.00946" lon="9.24862">
        <ele>1079.7</ele>
        <time>2012-11-09T11:56:24Z</time>
      </trkpt>
      <trkpt lat="40.00939" lon="9.24863">
        <ele>1080.1</ele>
        <time>2012-11-09T11:56:25Z</time>
      </trkpt>
      <trkpt lat="40.00884" lon="9.2488">
        <ele>1079.2</ele>
        <time>2012-11-09T11:56:32Z</time>
      </trkpt>
      <trkpt lat="40.00818" lon="9.24893">
        <ele>1076</ele>
        <time>2012-11-09T11:56:39Z</time>
      </trkpt>
      <trkpt lat="40.00764" lon="9.24886">
        <ele>1073.1</ele>
        <time>2012-11-09T11:56:44Z</time>
      </trkpt>
      <trkpt lat="40.00726" lon="9.24863">
        <ele>1068.9</ele>
        <time>2012-11-09T11:56:48Z</time>
      </trkpt>
      <trkpt lat="40.00715" lon="9.24861">
        <ele>1068.6</ele>
        <time>2012-11-09T11:56:49Z</time>
      </trkpt>
      <trkpt lat="40.00668" lon="9.24867">
        <ele>1065.1</ele>
        <time>2012-11-09T11:56:54Z</time>
      </trkpt>
      <trkpt lat="40.00627" lon="9.24866">
        <ele>1063.5</ele>
        <time>2012-11-09T11:57:00Z</time>
      </trkpt>
      <trkpt lat="40.00602" lon="9.24849">
        <ele>1063.3</ele>
        <time>2012-11-09T11:57:06Z</time>
      </trkpt>
      <trkpt lat="40.00572" lon="9.24836">
        <ele>1064</ele>
        <time>2012-11-09T11:57:18Z</time>
      </trkpt>
      <trkpt lat="40.00538" lon="9.24801">
        <ele>1062.8</ele>
        <time>2012-11-09T11:57:30Z</time>
      </trkpt>
      <trkpt lat="40.00503" lon="9.24784">
        <ele>1063.2</ele>
        <time>2012-11-09T11:57:40Z</time>
      </trkpt>
      <trkpt lat="40.00494" lon="9.24775">
        <ele>1064</ele>
        <time>2012-11-09T11:57:44Z</time>
      </trkpt>
      <trkpt lat="40.00486" lon="9.24758">
        <ele>1065.1</ele>
        <time>2012-11-09T11:57:50Z</time>
      </trkpt>
      <trkpt lat="40.00479" lon="9.24737">
        <ele>1068.3</ele>
        <time>2012-11-09T11:57:57Z</time>
      </trkpt>
      <trkpt lat="40.00473" lon="9.24711">
        <ele>1068.2</ele>
        <time>2012-11-09T11:58:05Z</time>
      </trkpt>
      <trkpt lat="40.00469" lon="9.24675">
        <ele>1068.4</ele>
        <time>2012-11-09T11:58:15Z</time>
      </trkpt>
      <trkpt lat="40.00455" lon="9.24627">
        <ele>1067.2</ele>
        <time>2012-11-09T11:58:31Z</time>
      </trkpt>
      <trkpt lat="40.00454" lon="9.24595">
        <ele>1067.9</ele>
        <time>2012-11-09T11:58:38Z</time>
      </trkpt>
      <trkpt lat="40.00448" lon="9.24548">
        <ele>1068.9</ele>
        <time>2012-11-09T11:58:48Z</time>
      </trkpt>
      <trkpt lat="40.00446" lon="9.24501">
        <ele>1068.4</ele>
        <time>2012-11-09T11:58:57Z</time>
      </trkpt>
      <trkpt lat="40.0044" lon="9.24457">
        <ele>1069.4</ele>
        <time>2012-11-09T11:59:05Z</time>
      </trkpt>
      <trkpt lat="40.00441" lon="9.24448">
        <ele>1069.2</ele>
        <time>2012-11-09T11:59:07Z</time>
      </trkpt>
      <trkpt lat="40.00451" lon="9.24427">
        <ele>1068.4</ele>
        <time>2012-11-09T11:59:11Z</time>
      </trkpt>
      <trkpt lat="40.0046" lon="9.24396">
        <ele>1069.3</ele>
        <time>2012-11-09T11:59:16Z</time>
      </trkpt>
      <trkpt lat="40.00462" lon="9.24372">
        <ele>1070.3</ele>
        <time>2012-11-09T11:59:19Z</time>
      </trkpt>
      <trkpt lat="40.00443" lon="9.24341">
        <ele>1071.1</ele>
        <time>2012-11-09T11:59:26Z</time>
      </trkpt>
      <trkpt lat="40.00423" lon="9.24321">
        <ele>1071</ele>
        <time>2012-11-09T11:59:31Z</time>
      </trkpt>
      <trkpt lat="40.00406" lon="9.24296">
        <ele>1070.5</ele>
        <time>2012-11-09T11:59:37Z</time>
      </trkpt>
      <trkpt lat="40.00379" lon="9.24276">
        <ele>1070.6</ele>
        <time>2012-11-09T11:59:43Z</time>
      </trkpt>
      <trkpt lat="40.00371" lon="9.24267">
        <ele>1070.8</ele>
        <time>2012-11-09T11:59:45Z</time>
      </trkpt>
      <trkpt lat="40.00356" lon="9.24226">
        <ele>1071.1</ele>
        <time>2012-11-09T11:59:50Z</time>
      </trkpt>
      <trkpt lat="40.00357" lon="9.24207">
        <ele>1071.1</ele>
        <time>2012-11-09T11:59:53Z</time>
      </trkpt>
      <trkpt lat="40.00379" lon="9.24143">
        <ele>1073.4</ele>
        <time>2012-11-09T12:00:02Z</time>
      </trkpt>
      <trkpt lat="40.00388" lon="9.24102">
        <ele>1074.3</ele>
        <time>2012-11-09T12:00:08Z</time>
      </trkpt>
      <trkpt lat="40.00407" lon="9.24055">
        <ele>1075.5</ele>
        <time>2012-11-09T12:00:15Z</time>
      </trkpt>
      <trkpt lat="40.00409" lon="9.24047">
        <ele>1076.1</ele>
        <time>2012-11-09T12:00:16Z</time>
      </trkpt>
      <trkpt lat="40.00403" lon="9.24018">
        <ele>1076.6</ele>
        <time>2012-11-09T12:00:20Z</time>
      </trkpt>
      <trkpt lat="40.0039" lon="9.23993">
        <ele>1077.1</ele>
        <time>2012-11-09T12:00:25Z</time>
      </trkpt>
      <trkpt lat="40.00379" lon="9.23958">
        <ele>1078.7</ele>
        <time>2012-11-09T12:00:32Z</time>
      </trkpt>
      <trkpt lat="40.00377" lon="9.23946">
        <ele>1079.9</ele>
        <time>2012-11-09T12:00:35Z</time>
      </trkpt>
      <trkpt lat="40.00341" lon="9.23854">
        <ele>1083.1</ele>
        <time>2012-11-09T12:01:03Z</time>
      </trkpt>
      <trkpt lat="40.00336" lon="9.23826">
        <ele>1083.6</ele>
        <time>2012-11-09T12:01:11Z</time>
      </trkpt>
      <trkpt lat="40.00337" lon="9.23793">
        <ele>1080.8</ele>
        <time>2012-11-09T12:01:20Z</time>
      </trkpt>
      <trkpt lat="40.00346" lon="9.23744">
        <ele>1082.2</ele>
        <time>2012-11-09T12:01:32Z</time>
      </trkpt>
      <trkpt lat="40.00355" lon="9.23714">
        <ele>1082.4</ele>
        <time>2012-11-09T12:01:37Z</time>
      </trkpt>
      <trkpt lat="40.00388" lon="9.23633">
        <ele>1081.4</ele>
        <time>2012-11-09T12:01:50Z</time>
      </trkpt>
      <trkpt lat="40.00393" lon="9.23599">
        <ele>1081.3</ele>
        <time>2012-11-09T12:01:55Z</time>
      </trkpt>
      <trkpt lat="40.004" lon="9.23572">
        <ele>1081</ele>
        <time>2012-11-09T12:01:59Z</time>
      </trkpt>
      <trkpt lat="40.00405" lon="9.2354">
        <ele>1080.3</ele>
        <time>2012-11-09T12:02:03Z</time>
      </trkpt>
      <trkpt lat="40.00403" lon="9.23508">
        <ele>1081.1</ele>
        <time>2012-11-09T12:02:08Z</time>
      </trkpt>
      <trkpt lat="40.00407" lon="9.23478">
        <ele>1079.6</ele>
        <time>2012-11-09T12:02:12Z</time>
      </trkpt>
      <trkpt lat="40.00406" lon="9.23427">
        <ele>1079.5</ele>
        <time>2012-11-09T12:02:18Z</time>
      </trkpt>
      <trkpt lat="40.00408" lon="9.2342">
        <ele>1079.2</ele>
        <time>2012-11-09T12:02:19Z</time>
      </trkpt>
      <trkpt lat="40.00414" lon="9.23418">
        <ele>1078.7</ele>
        <time>2012-11-09T12:02:20Z</time>
      </trkpt>
      <trkpt lat="40.00419" lon="9.23421">
        <ele>1078.2</ele>
        <time>2012-11-09T12:02:21Z</time>
      </trkpt>
      <trkpt lat="40.00442" lon="9.23444">
        <ele>1078.5</ele>
        <time>2012-11-09T12:02:25Z</time>
      </trkpt>
      <trkpt lat="40.00473" lon="9.23464">
        <ele>1078.1</ele>
        <time>2012-11-09T12:02:29Z</time>
      </trkpt>
      <trkpt lat="40.00698" lon="9.23514">
        <ele>1072.8</ele>
        <time>2012-11-09T12:02:50Z</time>
      </trkpt>
      <trkpt lat="40.00723" lon="9.23532">
        <ele>1065.1</ele>
        <time>2012-11-09T12:02:52Z</time>
      </trkpt>
      <trkpt lat="40.00755" lon="9.23588">
        <ele>1047.3</ele>
        <time>2012-11-09T12:02:56Z</time>
      </trkpt>
      <trkpt lat="40.00774" lon="9.23614">
        <ele>1046.3</ele>
        <time>2012-11-09T12:02:58Z</time>
      </trkpt>
      <trkpt lat="40.00798" lon="9.23664">
        <ele>1042.5</ele>
        <time>2012-11-09T12:03:02Z</time>
      </trkpt>
      <trkpt lat="40.00803" lon="9.23691">
        <ele>1042.8</ele>
        <time>2012-11-09T12:03:04Z</time>
      </trkpt>
      <trkpt lat="40.00802" lon="9.23745">
        <ele>1042.9</ele>
        <time>2012-11-09T12:03:08Z</time>
      </trkpt>
      <trkpt lat="40.00804" lon="9.23768">
        <ele>1043.3</ele>
        <time>2012-11-09T12:03:10Z</time>
      </trkpt>
      <trkpt lat="40.00812" lon="9.23792">
        <ele>1040.7</ele>
        <time>2012-11-09T12:03:12Z</time>
      </trkpt>
      <trkpt lat="40.00839" lon="9.23822">
        <ele>1040.9</ele>
        <time>2012-11-09T12:03:16Z</time>
      </trkpt>
      <trkpt lat="40.00854" lon="9.23848">
        <ele>1040.9</ele>
        <time>2012-11-09T12:03:19Z</time>
      </trkpt>
      <trkpt lat="40.00859" lon="9.23853">
        <ele>1040.7</ele>
        <time>2012-11-09T12:03:20Z</time>
      </trkpt>
      <trkpt lat="40.00866" lon="9.2385">
        <ele>1040.9</ele>
        <time>2012-11-09T12:03:21Z</time>
      </trkpt>
      <trkpt lat="40.00878" lon="9.23835">
        <ele>1040.6</ele>
        <time>2012-11-09T12:03:23Z</time>
      </trkpt>
      <trkpt lat="40.00887" lon="9.23812">
        <ele>1040.1</ele>
        <time>2012-11-09T12:03:25Z</time>
      </trkpt>
      <trkpt lat="40.00898" lon="9.23791">
        <ele>1039.8</ele>
        <time>2012-11-09T12:03:27Z</time>
      </trkpt>
      <trkpt lat="40.00923" lon="9.23766">
        <ele>1039.9</ele>
        <time>2012-11-09T12:03:30Z</time>
      </trkpt>
      <trkpt lat="40.00981" lon="9.23731">
        <ele>1039.4</ele>
        <time>2012-11-09T12:03:36Z</time>
      </trkpt>
      <trkpt lat="40.00991" lon="9.23729">
        <ele>1039.3</ele>
        <time>2012-11-09T12:03:37Z</time>
      </trkpt>
      <trkpt lat="40.01" lon="9.23736">
        <ele>1036.3</ele>
        <time>2012-11-09T12:03:38Z</time>
      </trkpt>
      <trkpt lat="40.01017" lon="9.23765">
        <ele>1033.4</ele>
        <time>2012-11-09T12:03:41Z</time>
      </trkpt>
      <trkpt lat="40.01038" lon="9.23781">
        <ele>1033.1</ele>
        <time>2012-11-09T12:03:44Z</time>
      </trkpt>
      <trkpt lat="40.01047" lon="9.23781">
        <ele>1033.4</ele>
        <time>2012-11-09T12:03:45Z</time>
      </trkpt>
      <trkpt lat="40.01055" lon="9.23776">
        <ele>1034.1</ele>
        <time>2012-11-09T12:03:46Z</time>
      </trkpt>
      <trkpt lat="40.01065" lon="9.23742">
        <ele>1031.9</ele>
        <time>2012-11-09T12:03:49Z</time>
      </trkpt>
      <trkpt lat="40.01075" lon="9.23728">
        <ele>1029.5</ele>
        <time>2012-11-09T12:03:51Z</time>
      </trkpt>
      <trkpt lat="40.0108" lon="9.23727">
        <ele>1028.7</ele>
        <time>2012-11-09T12:03:52Z</time>
      </trkpt>
      <trkpt lat="40.01093" lon="9.23737">
        <ele>1027.5</ele>
        <time>2012-11-09T12:03:54Z</time>
      </trkpt>
      <trkpt lat="40.01112" lon="9.23745">
        <ele>1022.7</ele>
        <time>2012-11-09T12:03:56Z</time>
      </trkpt>
      <trkpt lat="40.01141" lon="9.23745">
        <ele>1019</ele>
        <time>2012-11-09T12:03:59Z</time>
      </trkpt>
      <trkpt lat="40.01148" lon="9.23738">
        <ele>1019</ele>
        <time>2012-11-09T12:04:00Z</time>
      </trkpt>
      <trkpt lat="40.01171" lon="9.23703">
        <ele>1019</ele>
        <time>2012-11-09T12:04:03Z</time>
      </trkpt>
      <trkpt lat="40.01177" lon="9.23689">
        <ele>1018.8</ele>
        <time>2012-11-09T12:04:04Z</time>
      </trkpt>
      <trkpt lat="40.01187" lon="9.23651">
        <ele>1016.4</ele>
        <time>2012-11-09T12:04:07Z</time>
      </trkpt>
      <trkpt lat="40.01221" lon="9.23612">
        <ele>1010.1</ele>
        <time>2012-11-09T12:04:11Z</time>
      </trkpt>
      <trkpt lat="40.01231" lon="9.23583">
        <ele>1006.3</ele>
        <time>2012-11-09T12:04:13Z</time>
      </trkpt>
      <trkpt lat="40.01238" lon="9.23547">
        <ele>1000.3</ele>
        <time>2012-11-09T12:04:16Z</time>
      </trkpt>
      <trkpt lat="40.01244" lon="9.23543">
        <ele>999</ele>
        <time>2012-11-09T12:04:17Z</time>
      </trkpt>
      <trkpt lat="40.01252" lon="9.23545">
        <ele>997.7</ele>
        <time>2012-11-09T12:04:18Z</time>
      </trkpt>
      <trkpt lat="40.01272" lon="9.23562">
        <ele>994.7</ele>
        <time>2012-11-09T12:04:21Z</time>
      </trkpt>
      <trkpt lat="40.01276" lon="9.2357">
        <ele>994.9</ele>
        <time>2012-11-09T12:04:22Z</time>
      </trkpt>
      <trkpt lat="40.01282" lon="9.23601">
        <ele>993.6</ele>
        <time>2012-11-09T12:04:25Z</time>
      </trkpt>
      <trkpt lat="40.01287" lon="9.23611">
        <ele>993.2</ele>
        <time>2012-11-09T12:04:26Z</time>
      </trkpt>
      <trkpt lat="40.01295" lon="9.23615">
        <ele>993.3</ele>
        <time>2012-11-09T12:04:27Z</time>
      </trkpt>
      <trkpt lat="40.01333" lon="9.2361">
        <ele>992.8</ele>
        <time>2012-11-09T12:04:31Z</time>
      </trkpt>
      <trkpt lat="40.01369" lon="9.23598">
        <ele>992</ele>
        <time>2012-11-09T12:04:35Z</time>
      </trkpt>
      <trkpt lat="40.01384" lon="9.23606">
        <ele>991.9</ele>
        <time>2012-11-09T12:04:37Z</time>
      </trkpt>
      <trkpt lat="40.01391" lon="9.23607">
        <ele>992.1</ele>
        <time>2012-11-09T12:04:38Z</time>
      </trkpt>
      <trkpt lat="40.01399" lon="9.23602">
        <ele>992.2</ele>
        <time>2012-11-09T12:04:39Z</time>
      </trkpt>
      <trkpt lat="40.01413" lon="9.23578">
        <ele>988.1</ele>
        <time>2012-11-09T12:04:42Z</time>
      </trkpt>
      <trkpt lat="40.01425" lon="9.23564">
        <ele>986</ele>
        <time>2012-11-09T12:04:44Z</time>
      </trkpt>
      <trkpt lat="40.01438" lon="9.23554">
        <ele>984.8</ele>
        <time>2012-11-09T12:04:46Z</time>
      </trkpt>
      <trkpt lat="40.01445" lon="9.23555">
        <ele>984.4</ele>
        <time>2012-11-09T12:04:47Z</time>
      </trkpt>
      <trkpt lat="40.01478" lon="9.23583">
        <ele>983.9</ele>
        <time>2012-11-09T12:04:51Z</time>
      </trkpt>
      <trkpt lat="40.01506" lon="9.23599">
        <ele>984.1</ele>
        <time>2012-11-09T12:04:54Z</time>
      </trkpt>
      <trkpt lat="40.01528" lon="9.23602">
        <ele>984</ele>
        <time>2012-11-09T12:04:56Z</time>
      </trkpt>
      <trkpt lat="40.0156" lon="9.23598">
        <ele>983.6</ele>
        <time>2012-11-09T12:04:59Z</time>
      </trkpt>
      <trkpt lat="40.0158" lon="9.23598">
        <ele>982.9</ele>
        <time>2012-11-09T12:05:01Z</time>
      </trkpt>
      <trkpt lat="40.01602" lon="9.23603">
        <ele>982.1</ele>
        <time>2012-11-09T12:05:03Z</time>
      </trkpt>
      <trkpt lat="40.01635" lon="9.23599">
        <ele>980</ele>
        <time>2012-11-09T12:05:06Z</time>
      </trkpt>
      <trkpt lat="40.01654" lon="9.23601">
        <ele>975</ele>
        <time>2012-11-09T12:05:08Z</time>
      </trkpt>
      <trkpt lat="40.01672" lon="9.23614">
        <ele>973.9</ele>
        <time>2012-11-09T12:05:10Z</time>
      </trkpt>
      <trkpt lat="40.01696" lon="9.23667">
        <ele>964.9</ele>
        <time>2012-11-09T12:05:14Z</time>
      </trkpt>
      <trkpt lat="40.01703" lon="9.23675">
        <ele>964</ele>
        <time>2012-11-09T12:05:15Z</time>
      </trkpt>
      <trkpt lat="40.01712" lon="9.2368">
        <ele>963.9</ele>
        <time>2012-11-09T12:05:16Z</time>
      </trkpt>
      <trkpt lat="40.01722" lon="9.23681">
        <ele>963.9</ele>
        <time>2012-11-09T12:05:17Z</time>
      </trkpt>
      <trkpt lat="40.01742" lon="9.23677">
        <ele>964.1</ele>
        <time>2012-11-09T12:05:19Z</time>
      </trkpt>
      <trkpt lat="40.01748" lon="9.2367">
        <ele>963.5</ele>
        <time>2012-11-09T12:05:20Z</time>
      </trkpt>
      <trkpt lat="40.01739" lon="9.23629">
        <ele>959.8</ele>
        <time>2012-11-09T12:05:25Z</time>
      </trkpt>
      <trkpt lat="40.01742" lon="9.23592">
        <ele>955.1</ele>
        <time>2012-11-09T12:05:29Z</time>
      </trkpt>
      <trkpt lat="40.01818" lon="9.23422">
        <ele>959.2</ele>
        <time>2012-11-09T12:05:59Z</time>
      </trkpt>
      <trkpt lat="40.01817" lon="9.23412">
        <ele>958.3</ele>
        <time>2012-11-09T12:06:01Z</time>
      </trkpt>
      <trkpt lat="40.01814" lon="9.23406">
        <ele>957</ele>
        <time>2012-11-09T12:06:03Z</time>
      </trkpt>
      <trkpt lat="40.01791" lon="9.23398">
        <ele>958.3</ele>
        <time>2012-11-09T12:06:09Z</time>
      </trkpt>
      <trkpt lat="40.01771" lon="9.23408">
        <ele>959.3</ele>
        <time>2012-11-09T12:06:16Z</time>
      </trkpt>
      <trkpt lat="40.01764" lon="9.2342">
        <ele>959.7</ele>
        <time>2012-11-09T12:06:21Z</time>
      </trkpt>
      <trkpt lat="40.01747" lon="9.2343">
        <ele>959.4</ele>
        <time>2012-11-09T12:06:31Z</time>
      </trkpt>
      <trkpt lat="40.01732" lon="9.2343">
        <ele>955.5</ele>
        <time>2012-11-09T12:06:35Z</time>
      </trkpt>
      <trkpt lat="40.01719" lon="9.23419">
        <ele>955.4</ele>
        <time>2012-11-09T12:07:05Z</time>
      </trkpt>
      <trkpt lat="40.01689" lon="9.23414">
        <ele>952.9</ele>
        <time>2012-11-09T12:07:13Z</time>
      </trkpt>
      <trkpt lat="40.01636" lon="9.23418">
        <ele>954.4</ele>
        <time>2012-11-09T12:07:30Z</time>
      </trkpt>
      <trkpt lat="40.01627" lon="9.23415">
        <ele>955.1</ele>
        <time>2012-11-09T12:07:34Z</time>
      </trkpt>
      <trkpt lat="40.01618" lon="9.23406">
        <ele>955.6</ele>
        <time>2012-11-09T12:07:39Z</time>
      </trkpt>
      <trkpt lat="40.01607" lon="9.23389">
        <ele>958.7</ele>
        <time>2012-11-09T12:07:46Z</time>
      </trkpt>
      <trkpt lat="40.016" lon="9.23352">
        <ele>962</ele>
        <time>2012-11-09T12:07:57Z</time>
      </trkpt>
      <trkpt lat="40.016" lon="9.23327">
        <ele>963.4</ele>
        <time>2012-11-09T12:08:02Z</time>
      </trkpt>
      <trkpt lat="40.01612" lon="9.2329">
        <ele>962.6</ele>
        <time>2012-11-09T12:08:07Z</time>
      </trkpt>
      <trkpt lat="40.01613" lon="9.23274">
        <ele>963.1</ele>
        <time>2012-11-09T12:08:09Z</time>
      </trkpt>
      <trkpt lat="40.01612" lon="9.23266">
        <ele>963.4</ele>
        <time>2012-11-09T12:08:10Z</time>
      </trkpt>
      <trkpt lat="40.01605" lon="9.23252">
        <ele>964.3</ele>
        <time>2012-11-09T12:08:12Z</time>
      </trkpt>
      <trkpt lat="40.01566" lon="9.23188">
        <ele>965</ele>
        <time>2012-11-09T12:08:20Z</time>
      </trkpt>
      <trkpt lat="40.01533" lon="9.23124">
        <ele>962.3</ele>
        <time>2012-11-09T12:08:27Z</time>
      </trkpt>
      <trkpt lat="40.0152" lon="9.23108">
        <ele>960.5</ele>
        <time>2012-11-09T12:08:29Z</time>
      </trkpt>
      <trkpt lat="40.01512" lon="9.23103">
        <ele>960.6</ele>
        <time>2012-11-09T12:08:30Z</time>
      </trkpt>
      <trkpt lat="40.01466" lon="9.23089">
        <ele>957.2</ele>
        <time>2012-11-09T12:08:36Z</time>
      </trkpt>
      <trkpt lat="40.01424" lon="9.23063">
        <ele>955.2</ele>
        <time>2012-11-09T12:08:42Z</time>
      </trkpt>
      <trkpt lat="40.01381" lon="9.23057">
        <ele>952.8</ele>
        <time>2012-11-09T12:08:48Z</time>
      </trkpt>
      <trkpt lat="40.01359" lon="9.2305">
        <ele>952.3</ele>
        <time>2012-11-09T12:08:51Z</time>
      </trkpt>
      <trkpt lat="40.01308" lon="9.23008">
        <ele>951.6</ele>
        <time>2012-11-09T12:09:01Z</time>
      </trkpt>
      <trkpt lat="40.0129" lon="9.22985">
        <ele>950.4</ele>
        <time>2012-11-09T12:09:05Z</time>
      </trkpt>
      <trkpt lat="40.01283" lon="9.2297">
        <ele>950.5</ele>
        <time>2012-11-09T12:09:07Z</time>
      </trkpt>
      <trkpt lat="40.01269" lon="9.2295">
        <ele>949.7</ele>
        <time>2012-11-09T12:09:10Z</time>
      </trkpt>
      <trkpt lat="40.01245" lon="9.2293">
        <ele>949</ele>
        <time>2012-11-09T12:09:14Z</time>
      </trkpt>
      <trkpt lat="40.01185" lon="9.22897">
        <ele>947.7</ele>
        <time>2012-11-09T12:09:23Z</time>
      </trkpt>
      <trkpt lat="40.0115" lon="9.22892">
        <ele>945.2</ele>
        <time>2012-11-09T12:09:28Z</time>
      </trkpt>
      <trkpt lat="40.01123" lon="9.22876">
        <ele>944.2</ele>
        <time>2012-11-09T12:09:33Z</time>
      </trkpt>
      <trkpt lat="40.01113" lon="9.22873">
        <ele>944.4</ele>
        <time>2012-11-09T12:09:35Z</time>
      </trkpt>
      <trkpt lat="40.01105" lon="9.22874">
        <ele>945.9</ele>
        <time>2012-11-09T12:11:51Z</time>
      </trkpt>
    </trkseg>
  </trk>
</gpx>